Observation data for McCamey on 07/03/2020      Previous  Date  Next       Current Mesonet Observations  Soil Data  Daily Summary Page  Observations in Plain Language
KMC4 030500Z 12005KT 28/18 A30 RMK A01 T02820181  RH  054%=      5-min Rain = 0
KMC4 030501Z 13005KT 28/18 A30 RMK A01 T02820181  RH  054%=      5-min Rain = 0
KMC4 030502Z 12005KT 28/18 A30 RMK A01 T02820181  RH  054%=      5-min Rain = 0
KMC4 030503Z 12005KT 28/18 A30 RMK A01 T02820181  RH  054%=      5-min Rain = 0
KMC4 030504Z 12005KT 28/18 A30 RMK A01 T02820181  RH  054%=      5-min Rain = 0
KMC4 030505Z 11005KT 28/18 A30 RMK A01 T02820181  RH  054%=      5-min Rain = 0
KMC4 030506Z 12004KT 28/18 A30 RMK A01 T02820181  RH  054%=      5-min Rain = 0
KMC4 030507Z 12005KT 28/18 A30 RMK A01 T02820181  RH  054%=      5-min Rain = 0
KMC4 030508Z 12006KT 28/18 A30 RMK A01 T02830181  RH  054%=      5-min Rain = 0
KMC4 030509Z 11006KT 28/18 A30 RMK A01 T02830181  RH  054%=      5-min Rain = 0
KMC4 030510Z 12005KT 28/18 A30 RMK A01 T02830180  RH  054%=      5-min Rain = 0
KMC4 030511Z 11005KT 28/18 A30 RMK A01 T02840181  RH  054%=      5-min Rain = 0
KMC4 030512Z 12005KT 28/18 A30 RMK A01 T02840180  RH  053%=      5-min Rain = 0
KMC4 030513Z 12006KT 28/18 A30 RMK A01 T02840180  RH  053%=      5-min Rain = 0
KMC4 030514Z 12005KT 28/18 A30 RMK A01 T02840180  RH  053%=      5-min Rain = 0
KMC4 030515Z 12006KT 28/18 A30 RMK A01 T02830180  RH  053%=      5-min Rain = 0
KMC4 030516Z 12006KT 28/18 A30 RMK A01 T02830180  RH  053%=      5-min Rain = 0
KMC4 030517Z 12006KT 28/18 A30 RMK A01 T02830179  RH  053%=      5-min Rain = 0
KMC4 030518Z 12006KT 28/18 A30 RMK A01 T02830179  RH  053%=      5-min Rain = 0
KMC4 030519Z 12006KT 28/18 A30 RMK A01 T02830179  RH  053%=      5-min Rain = 0
KMC4 030520Z 12006KT 28/18 A30 RMK A01 T02830179  RH  053%=      5-min Rain = 0
KMC4 030521Z 12006KT 28/18 A30 RMK A01 T02830179  RH  053%=      5-min Rain = 0
KMC4 030522Z 12006KT 28/18 A30 RMK A01 T02830179  RH  053%=      5-min Rain = 0
KMC4 030523Z 12006KT 28/18 A30 RMK A01 T02830178  RH  053%=      5-min Rain = 0
KMC4 030524Z 12006KT 28/18 A30 RMK A01 T02830179  RH  053%=      5-min Rain = 0
KMC4 030525Z 12006KT 28/18 A30 RMK A01 T02830179  RH  053%=      5-min Rain = 0
KMC4 030526Z 11005KT 28/18 A30 RMK A01 T02830179  RH  053%=      5-min Rain = 0
KMC4 030527Z 11006KT 28/18 A30 RMK A01 T02830178  RH  053%=      5-min Rain = 0
KMC4 030528Z 11006KT 28/18 A30 RMK A01 T02830178  RH  053%=      5-min Rain = 0
KMC4 030529Z 11005KT 28/18 A30 RMK A01 T02830178  RH  053%=      5-min Rain = 0
KMC4 030530Z 11005KT 28/18 A30 RMK A01 T02830178  RH  053%=      5-min Rain = 0
KMC4 030531Z 11005KT 28/18 A30 RMK A01 T02830178  RH  053%=      5-min Rain = 0
KMC4 030532Z 11005KT 28/18 A30 RMK A01 T02830178  RH  053%=      5-min Rain = 0
KMC4 030533Z 11004KT 28/18 A30 RMK A01 T02830178  RH  053%=      5-min Rain = 0
KMC4 030534Z 11005KT 28/18 A30 RMK A01 T02830178  RH  053%=      5-min Rain = 0
KMC4 030535Z 11005KT 28/18 A30 RMK A01 T02830178  RH  053%=      5-min Rain = 0
KMC4 030536Z 10004KT 28/18 A30 RMK A01 T02830178  RH  053%=      5-min Rain = 0
KMC4 030537Z 10005KT 28/18 A30 RMK A01 T02830178  RH  053%=      5-min Rain = 0
KMC4 030538Z 10005KT 28/18 A30 RMK A01 T02820178  RH  053%=      5-min Rain = 0
KMC4 030539Z 10005KT 28/18 A30 RMK A01 T02820177  RH  053%=      5-min Rain = 0
KMC4 030540Z 10006KT 28/18 A30 RMK A01 T02820177  RH  053%=      5-min Rain = 0
KMC4 030541Z 10005KT 28/18 A30 RMK A01 T02810177  RH  053%=      5-min Rain = 0
KMC4 030542Z 10006KT 28/18 A30 RMK A01 T02810177  RH  053%=      5-min Rain = 0
KMC4 030543Z 10006KT 28/18 A30 RMK A01 T02800177  RH  053%=      5-min Rain = 0
KMC4 030544Z 10006KT 28/18 A30 RMK A01 T02800176  RH  053%=      5-min Rain = 0
KMC4 030545Z 10006KT 28/18 A30 RMK A01 T02800176  RH  053%=      5-min Rain = 0
KMC4 030546Z 10006KT 28/18 A30 RMK A01 T02800176  RH  053%=      5-min Rain = 0
KMC4 030547Z 10006KT 28/18 A30 RMK A01 T02800176  RH  053%=      5-min Rain = 0
KMC4 030548Z 10006KT 28/18 A30 RMK A01 T02800176  RH  053%=      5-min Rain = 0
KMC4 030549Z 10006KT 28/18 A30 RMK A01 T02810176  RH  053%=      5-min Rain = 0
KMC4 030550Z 10006KT 28/18 A30 RMK A01 T02810176  RH  053%=      5-min Rain = 0
KMC4 030551Z 10006KT 28/18 A30 RMK A01 T02800176  RH  053%=      5-min Rain = 0
KMC4 030552Z 10006KT 28/18 A30 RMK A01 T02810176  RH  053%=      5-min Rain = 0
KMC4 030553Z 09005KT 28/18 A30 RMK A01 T02810176  RH  053%=      5-min Rain = 0
KMC4 030554Z 09006KT 28/18 A30 RMK A01 T02800176  RH  053%=      5-min Rain = 0
KMC4 030555Z 09005KT 28/18 A30 RMK A01 T02810176  RH  053%=      5-min Rain = 0
KMC4 030556Z 09006KT 28/18 A30 RMK A01 T02800176  RH  053%=      5-min Rain = 0
KMC4 030557Z 09005KT 28/18 A30 RMK A01 T02800176  RH  053%=      5-min Rain = 0
KMC4 030558Z 09006KT 28/18 A30 RMK A01 T02790176  RH  053%=      5-min Rain = 0
KMC4 030559Z 10005KT 28/18 A30 RMK A01 T02790176  RH  054%=      5-min Rain = 0
KMC4 030600Z 09006KT 28/18 A30 RMK A01 T02790176  RH  054%=      5-min Rain = 0
KMC4 030601Z 10005KT 28/18 A30 RMK A01 T02790177  RH  054%=      5-min Rain = 0
KMC4 030602Z 10006KT 28/18 A30 RMK A01 T02790176  RH  054%=      5-min Rain = 0
KMC4 030603Z 09005KT 28/18 A30 RMK A01 T02790177  RH  054%=      5-min Rain = 0
KMC4 030604Z 09005KT 28/18 A30 RMK A01 T02780176  RH  054%=      5-min Rain = 0
KMC4 030605Z 09006KT 28/18 A30 RMK A01 T02780177  RH  054%=      5-min Rain = 0
KMC4 030606Z 10006KT 28/18 A30 RMK A01 T02780177  RH  054%=      5-min Rain = 0
KMC4 030607Z 10005KT 28/18 A30 RMK A01 T02780176  RH  054%=      5-min Rain = 0
KMC4 030608Z 10005KT 28/18 A30 RMK A01 T02780177  RH  054%=      5-min Rain = 0
KMC4 030609Z 10006KT 28/18 A30 RMK A01 T02780176  RH  054%=      5-min Rain = 0
KMC4 030610Z 10005KT 28/18 A30 RMK A01 T02780177  RH  054%=      5-min Rain = 0
KMC4 030611Z 10005KT 28/18 A30 RMK A01 T02780176  RH  054%=      5-min Rain = 0
KMC4 030612Z 10005KT 28/18 A30 RMK A01 T02770176  RH  054%=      5-min Rain = 0
KMC4 030613Z 09005KT 28/18 A30 RMK A01 T02780177  RH  054%=      5-min Rain = 0
KMC4 030614Z 10005KT 28/18 A30 RMK A01 T02770176  RH  054%=      5-min Rain = 0
KMC4 030615Z 09005KT 28/18 A30 RMK A01 T02770176  RH  054%=      5-min Rain = 0
KMC4 030616Z 09005KT 28/18 A30 RMK A01 T02770176  RH  054%=      5-min Rain = 0
KMC4 030617Z 10005KT 28/18 A30 RMK A01 T02770176  RH  054%=      5-min Rain = 0
KMC4 030618Z 09006KT 28/18 A30 RMK A01 T02760176  RH  054%=      5-min Rain = 0
KMC4 030619Z 10006KT 28/18 A30 RMK A01 T02760176  RH  054%=      5-min Rain = 0
KMC4 030620Z 09006KT 28/18 A30 RMK A01 T02760176  RH  055%=      5-min Rain = 0
KMC4 030621Z 09005KT 28/18 A30 RMK A01 T02760176  RH  055%=      5-min Rain = 0
KMC4 030622Z 09006KT 28/18 A30 RMK A01 T02760176  RH  055%=      5-min Rain = 0
KMC4 030623Z 09005KT 28/18 A30 RMK A01 T02760177  RH  055%=      5-min Rain = 0
KMC4 030624Z 09005KT 28/18 A30 RMK A01 T02760177  RH  055%=      5-min Rain = 0
KMC4 030625Z 09006KT 28/18 A30 RMK A01 T02750177  RH  055%=      5-min Rain = 0
KMC4 030626Z 09006KT 28/18 A30 RMK A01 T02750177  RH  055%=      5-min Rain = 0
KMC4 030627Z 09005KT 28/18 A30 RMK A01 T02750177  RH  055%=      5-min Rain = 0
KMC4 030628Z 09005KT 28/18 A30 RMK A01 T02750177  RH  055%=      5-min Rain = 0
KMC4 030629Z 09006KT 28/18 A30 RMK A01 T02750177  RH  055%=      5-min Rain = 0
KMC4 030630Z 09006KT 28/18 A30 RMK A01 T02750177  RH  055%=      5-min Rain = 0
KMC4 030631Z 09006KT 28/18 A30 RMK A01 T02750177  RH  055%=      5-min Rain = 0
KMC4 030632Z 09006KT 28/18 A30 RMK A01 T02750177  RH  055%=      5-min Rain = 0
KMC4 030633Z 09005KT 27/18 A30 RMK A01 T02740177  RH  055%=      5-min Rain = 0
KMC4 030634Z 09005KT 28/18 A30 RMK A01 T02750177  RH  055%=      5-min Rain = 0
KMC4 030635Z 09006KT 27/18 A30 RMK A01 T02740177  RH  055%=      5-min Rain = 0
KMC4 030636Z 09006KT 27/18 A30 RMK A01 T02740177  RH  055%=      5-min Rain = 0
KMC4 030637Z 10006KT 27/18 A30 RMK A01 T02740177  RH  055%=      5-min Rain = 0
KMC4 030638Z 10006KT 28/18 A30 RMK A01 T02750177  RH  055%=      5-min Rain = 0
KMC4 030639Z 10005KT 28/18 A30 RMK A01 T02750178  RH  055%=      5-min Rain = 0
KMC4 030640Z 10005KT 28/18 A30 RMK A01 T02750178  RH  055%=      5-min Rain = 0
KMC4 030641Z 10005KT 28/18 A30 RMK A01 T02750177  RH  055%=      5-min Rain = 0
KMC4 030642Z 10005KT 28/18 A30 RMK A01 T02750178  RH  055%=      5-min Rain = 0
KMC4 030643Z 10006KT 28/18 A30 RMK A01 T02750178  RH  055%=      5-min Rain = 0
KMC4 030644Z 10005KT 27/18 A30 RMK A01 T02740177  RH  055%=      5-min Rain = 0
KMC4 030645Z 11005KT 28/18 A30 RMK A01 T02750178  RH  056%=      5-min Rain = 0
KMC4 030646Z 11005KT 27/18 A30 RMK A01 T02740178  RH  055%=      5-min Rain = 0
KMC4 030647Z 11006KT 27/18 A30 RMK A01 T02740177  RH  056%=      5-min Rain = 0
KMC4 030648Z 11005KT 27/18 A30 RMK A01 T02740178  RH  056%=      5-min Rain = 0
KMC4 030649Z 11005KT 27/18 A30 RMK A01 T02740178  RH  056%=      5-min Rain = 0
KMC4 030650Z 11005KT 27/18 A30 RMK A01 T02740178  RH  056%=      5-min Rain = 0
KMC4 030651Z 11006KT 27/18 A2999 RMK A01 T02730178  RH  056%=      5-min Rain = 0
KMC4 030652Z 11005KT 27/18 A2999 RMK A01 T02730178  RH  056%=      5-min Rain = 0
KMC4 030653Z 11004KT 27/18 A2999 RMK A01 T02730178  RH  056%=      5-min Rain = 0
KMC4 030654Z 11005KT 27/18 A30 RMK A01 T02730178  RH  056%=      5-min Rain = 0
KMC4 030655Z 10005KT 27/18 A30 RMK A01 T02730179  RH  056%=      5-min Rain = 0
KMC4 030656Z 10005KT 27/18 A30 RMK A01 T02730179  RH  056%=      5-min Rain = 0
KMC4 030657Z 10004KT 27/18 A30 RMK A01 T02730179  RH  056%=      5-min Rain = 0
KMC4 030658Z 09005KT 27/18 A30 RMK A01 T02730178  RH  056%=      5-min Rain = 0
KMC4 030659Z 09004KT 27/18 A30 RMK A01 T02720179  RH  056%=      5-min Rain = 0
KMC4 030700Z 09004KT 27/18 A30 RMK A01 T02720178  RH  056%=      5-min Rain = 0
KMC4 030701Z 09005KT 27/18 A30 RMK A01 T02710178  RH  057%=      5-min Rain = 0
KMC4 030702Z 09005KT 27/18 A30 RMK A01 T02710178  RH  057%=      5-min Rain = 0
KMC4 030703Z 09004KT 27/18 A30 RMK A01 T02720178  RH  057%=      5-min Rain = 0
KMC4 030704Z 09005KT 27/18 A30 RMK A01 T02710178  RH  057%=      5-min Rain = 0
KMC4 030705Z 09005KT 27/18 A30 RMK A01 T02710178  RH  057%=      5-min Rain = 0
KMC4 030706Z 10004KT 27/18 A30 RMK A01 T02710178  RH  057%=      5-min Rain = 0
KMC4 030707Z 10005KT 27/18 A30 RMK A01 T02700178  RH  057%=      5-min Rain = 0
KMC4 030708Z 10005KT 27/18 A30 RMK A01 T02700178  RH  057%=      5-min Rain = 0
KMC4 030709Z 10005KT 27/18 A30 RMK A01 T02700178  RH  057%=      5-min Rain = 0
KMC4 030710Z 10005KT 27/18 A30 RMK A01 T02700178  RH  057%=      5-min Rain = 0
KMC4 030711Z 10006KT 27/18 A30 RMK A01 T02700178  RH  057%=      5-min Rain = 0
KMC4 030712Z 10005KT 27/18 A30 RMK A01 T02710178  RH  057%=      5-min Rain = 0
KMC4 030713Z 10005KT 27/18 A30 RMK A01 T02700178  RH  057%=      5-min Rain = 0
KMC4 030714Z 10005KT 27/18 A30 RMK A01 T02700178  RH  057%=      5-min Rain = 0
KMC4 030715Z 10006KT 27/18 A30 RMK A01 T02700178  RH  057%=      5-min Rain = 0
KMC4 030716Z 10007KT 27/18 A30 RMK A01 T02710178  RH  057%=      5-min Rain = 0
KMC4 030717Z 10007KT 27/18 A30 RMK A01 T02700178  RH  057%=      5-min Rain = 0
KMC4 030718Z 10007KT 27/18 A30 RMK A01 T02700178  RH  057%=      5-min Rain = 0
KMC4 030719Z 11005KT 27/18 A30 RMK A01 T02700178  RH  057%=      5-min Rain = 0
KMC4 030720Z 11004KT 27/18 A30 RMK A01 T02710178  RH  057%=      5-min Rain = 0
KMC4 030721Z 12006KT 27/18 A30 RMK A01 T02710178  RH  057%=      5-min Rain = 0
KMC4 030722Z 11008KT 27/18 A30 RMK A01 T02710178  RH  057%=      5-min Rain = 0
KMC4 030723Z 11006KT 27/18 A30 RMK A01 T02710179  RH  057%=      5-min Rain = 0
KMC4 030724Z 12007KT 27/18 A30 RMK A01 T02710179  RH  057%=      5-min Rain = 0
KMC4 030725Z 13008KT 27/18 A30 RMK A01 T02720179  RH  057%=      5-min Rain = 0
KMC4 030726Z 12007KT 27/18 A30 RMK A01 T02730179  RH  057%=      5-min Rain = 0
KMC4 030727Z 13009KT 27/18 A30 RMK A01 T02730179  RH  056%=      5-min Rain = 0
KMC4 030728Z 13009KT 27/18 A30 RMK A01 T02730179  RH  056%=      5-min Rain = 0
KMC4 030729Z 13008KT 27/18 A30 RMK A01 T02730179  RH  056%=      5-min Rain = 0
KMC4 030730Z 13007KT 27/18 A30 RMK A01 T02730179  RH  056%=      5-min Rain = 0
KMC4 030731Z 13006KT 27/18 A30 RMK A01 T02740179  RH  056%=      5-min Rain = 0
KMC4 030732Z 12005KT 27/18 A2999 RMK A01 T02740179  RH  056%=      5-min Rain = 0
KMC4 030733Z 13006KT 27/18 A2999 RMK A01 T02730178  RH  056%=      5-min Rain = 0
KMC4 030734Z 13006KT 27/18 A2999 RMK A01 T02730179  RH  056%=      5-min Rain = 0
KMC4 030735Z 13005KT 27/18 A2999 RMK A01 T02730179  RH  056%=      5-min Rain = 0
KMC4 030736Z 13006KT 27/18 A2999 RMK A01 T02730178  RH  056%=      5-min Rain = 0
KMC4 030737Z 13006KT 27/18 A2999 RMK A01 T02720178  RH  056%=      5-min Rain = 0
KMC4 030738Z 12006KT 27/18 A2999 RMK A01 T02720178  RH  056%=      5-min Rain = 0
KMC4 030739Z 12006KT 27/18 A2999 RMK A01 T02720178  RH  057%=      5-min Rain = 0
KMC4 030740Z 12006KT 27/18 A2999 RMK A01 T02710178  RH  057%=      5-min Rain = 0
KMC4 030741Z 13006KT 27/18 A2999 RMK A01 T02710178  RH  057%=      5-min Rain = 0
KMC4 030742Z 12005KT 27/18 A2999 RMK A01 T02720178  RH  057%=      5-min Rain = 0
KMC4 030743Z 12006KT 27/18 A2999 RMK A01 T02710178  RH  057%=      5-min Rain = 0
KMC4 030744Z 12007KT 27/18 A2999 RMK A01 T02720179  RH  057%=      5-min Rain = 0
KMC4 030745Z 12007KT 27/18 A2999 RMK A01 T02710178  RH  057%=      5-min Rain = 0
KMC4 030746Z 12007KT 27/18 A2999 RMK A01 T02710178  RH  057%=      5-min Rain = 0
KMC4 030747Z 13007KT 27/18 A2999 RMK A01 T02720178  RH  057%=      5-min Rain = 0
KMC4 030748Z 13007KT 27/18 A2999 RMK A01 T02720178  RH  057%=      5-min Rain = 0
KMC4 030749Z 13006KT 27/18 A2999 RMK A01 T02720178  RH  057%=      5-min Rain = 0
KMC4 030750Z 13007KT 27/18 A2999 RMK A01 T02720178  RH  056%=      5-min Rain = 0
KMC4 030751Z 13007KT 27/18 A30 RMK A01 T02720178  RH  056%=      5-min Rain = 0
KMC4 030752Z 13008KT 27/18 A30 RMK A01 T02720178  RH  056%=      5-min Rain = 0
KMC4 030753Z 13007KT 27/18 A30 RMK A01 T02720178  RH  057%=      5-min Rain = 0
KMC4 030754Z 12007KT 27/18 A30 RMK A01 T02720178  RH  057%=      5-min Rain = 0
KMC4 030755Z 13008KT 27/18 A2999 RMK A01 T02720178  RH  057%=      5-min Rain = 0
KMC4 030756Z 12007KT 27/18 A2999 RMK A01 T02720178  RH  056%=      5-min Rain = 0
KMC4 030757Z 12007KT 27/18 A2999 RMK A01 T02720178  RH  056%=      5-min Rain = 0
KMC4 030758Z 12007KT 27/18 A30 RMK A01 T02720177  RH  056%=      5-min Rain = 0
KMC4 030759Z 12007KT 27/18 A30 RMK A01 T02720177  RH  056%=      5-min Rain = 0
KMC4 030800Z 12006KT 27/18 A30 RMK A01 T02720177  RH  056%=      5-min Rain = 0
KMC4 030801Z 12006KT 27/18 A30 RMK A01 T02720177  RH  056%=      5-min Rain = 0
KMC4 030802Z 12006KT 27/18 A30 RMK A01 T02720177  RH  056%=      5-min Rain = 0
KMC4 030803Z 11007KT 27/18 A30 RMK A01 T02720177  RH  056%=      5-min Rain = 0
KMC4 030804Z 12008KT 27/18 A30 RMK A01 T02710177  RH  056%=      5-min Rain = 0
KMC4 030805Z 12006KT 27/18 A30 RMK A01 T02720177  RH  056%=      5-min Rain = 0
KMC4 030806Z 12005KT 27/18 A30 RMK A01 T02720177  RH  056%=      5-min Rain = 0
KMC4 030807Z 11006KT 27/18 A30 RMK A01 T02710176  RH  056%=      5-min Rain = 0
KMC4 030808Z 12008KT 27/18 A30 RMK A01 T02710177  RH  056%=      5-min Rain = 0
KMC4 030809Z 12006KT 27/18 A30 RMK A01 T02710176  RH  056%=      5-min Rain = 0
KMC4 030810Z 12006KT 27/18 A30 RMK A01 T02720176  RH  056%=      5-min Rain = 0
KMC4 030811Z 11006KT 27/18 A30 RMK A01 T02720176  RH  056%=      5-min Rain = 0
KMC4 030812Z 12009KT 27/18 A30 RMK A01 T02710176  RH  056%=      5-min Rain = 0
KMC4 030813Z 12009KT 27/18 A30 RMK A01 T02720175  RH  056%=      5-min Rain = 0
KMC4 030814Z 12009KT 27/18 A30 RMK A01 T02730176  RH  055%=      5-min Rain = 0
KMC4 030815Z 13009KT 27/18 A30 RMK A01 T02730175  RH  055%=      5-min Rain = 0
KMC4 030816Z 13009KT 27/18 A30 RMK A01 T02730175  RH  055%=      5-min Rain = 0
KMC4 030817Z 13008KT 27/18 A30 RMK A01 T02730175  RH  055%=      5-min Rain = 0
KMC4 030818Z 13008KT 27/18 A30 RMK A01 T02720175  RH  055%=      5-min Rain = 0
KMC4 030819Z 12008KT 27/18 A30 RMK A01 T02720175  RH  055%=      5-min Rain = 0
KMC4 030820Z 13007KT 27/18 A30 RMK A01 T02720175  RH  055%=      5-min Rain = 0
KMC4 030821Z 12008KT 27/18 A30 RMK A01 T02720175  RH  056%=      5-min Rain = 0
KMC4 030822Z 12008KT 27/18 A2999 RMK A01 T02720175  RH  056%=      5-min Rain = 0
KMC4 030823Z 12009KT 27/18 A2999 RMK A01 T02720175  RH  056%=      5-min Rain = 0
KMC4 030824Z 13009KT 27/18 A2999 RMK A01 T02720175  RH  055%=      5-min Rain = 0
KMC4 030825Z 12007KT 27/18 A2999 RMK A01 T02720175  RH  055%=      5-min Rain = 0
KMC4 030826Z 12008KT 27/18 A2999 RMK A01 T02720175  RH  055%=      5-min Rain = 0
KMC4 030827Z 12010KT 27/18 A2999 RMK A01 T02710175  RH  056%=      5-min Rain = 0
KMC4 030828Z 13010KT 27/18 A2999 RMK A01 T02710175  RH  056%=      5-min Rain = 0
KMC4 030829Z 13008KT 27/18 A2999 RMK A01 T02710175  RH  056%=      5-min Rain = 0
KMC4 030830Z 12009KT 27/18 A2999 RMK A01 T02710175  RH  056%=      5-min Rain = 0
KMC4 030831Z 13010KT 27/18 A2999 RMK A01 T02710175  RH  056%=      5-min Rain = 0
KMC4 030832Z 12009KT 27/18 A2999 RMK A01 T02710175  RH  056%=      5-min Rain = 0
KMC4 030833Z 12009KT 27/18 A2999 RMK A01 T02710175  RH  056%=      5-min Rain = 0
KMC4 030834Z 13009KT 27/18 A2999 RMK A01 T02710175  RH  056%=      5-min Rain = 0
KMC4 030835Z 12010KT 27/18 A2999 RMK A01 T02710175  RH  056%=      5-min Rain = 0
KMC4 030836Z 12009KT 27/18 A2999 RMK A01 T02710175  RH  056%=      5-min Rain = 0
KMC4 030837Z 13009KT 27/18 A2999 RMK A01 T02710175  RH  056%=      5-min Rain = 0
KMC4 030838Z 12008KT 27/17 A2999 RMK A01 T02700174  RH  056%=      5-min Rain = 0
KMC4 030839Z 12009KT 27/17 A2999 RMK A01 T02700174  RH  056%=      5-min Rain = 0
KMC4 030840Z 13010KT 27/17 A2999 RMK A01 T02700174  RH  056%=      5-min Rain = 0
KMC4 030841Z 13009KT 27/18 A2999 RMK A01 T02700175  RH  056%=      5-min Rain = 0
KMC4 030842Z 13010KT 27/17 A2999 RMK A01 T02700174  RH  056%=      5-min Rain = 0
KMC4 030843Z 13010KT 27/17 A2999 RMK A01 T02700174  RH  056%=      5-min Rain = 0
KMC4 030844Z 12008KT 27/17 A2999 RMK A01 T02690174  RH  056%=      5-min Rain = 0
KMC4 030845Z 12009KT 27/17 A2999 RMK A01 T02690174  RH  056%=      5-min Rain = 0
KMC4 030846Z 12009KT 27/17 A2999 RMK A01 T02690174  RH  056%=      5-min Rain = 0
KMC4 030847Z 13009KT 27/17 A2999 RMK A01 T02690174  RH  056%=      5-min Rain = 0
KMC4 030848Z 13008KT 27/17 A2999 RMK A01 T02690174  RH  056%=      5-min Rain = 0
KMC4 030849Z 13008KT 27/17 A2999 RMK A01 T02690174  RH  056%=      5-min Rain = 0
KMC4 030850Z 12007KT 27/17 A2999 RMK A01 T02680173  RH  056%=      5-min Rain = 0
KMC4 030851Z 12007KT 27/17 A2999 RMK A01 T02680173  RH  056%=      5-min Rain = 0
KMC4 030852Z 13010KT 27/17 A2999 RMK A01 T02680174  RH  056%=      5-min Rain = 0
KMC4 030853Z 13008KT 27/17 A2999 RMK A01 T02680173  RH  056%=      5-min Rain = 0
KMC4 030854Z 13008KT 27/17 A2999 RMK A01 T02680173  RH  056%=      5-min Rain = 0
KMC4 030855Z 13009KT 27/17 A2999 RMK A01 T02680173  RH  056%=      5-min Rain = 0
KMC4 030856Z 13009KT 27/17 A2999 RMK A01 T02670173  RH  056%=      5-min Rain = 0
KMC4 030857Z 13008KT 27/17 A2999 RMK A01 T02670173  RH  056%=      5-min Rain = 0
KMC4 030858Z 13007KT 27/17 A2999 RMK A01 T02670173  RH  056%=      5-min Rain = 0
KMC4 030859Z 13008KT 27/17 A2999 RMK A01 T02670173  RH  056%=      5-min Rain = 0
KMC4 030900Z 13008KT 27/17 A2999 RMK A01 T02670173  RH  056%=      5-min Rain = 0
KMC4 030901Z 13008KT 27/17 A2999 RMK A01 T02670173  RH  056%=      5-min Rain = 0
KMC4 030902Z 14008KT 27/17 A2999 RMK A01 T02670172  RH  056%=      5-min Rain = 0
KMC4 030903Z 14007KT 27/17 A2999 RMK A01 T02670172  RH  056%=      5-min Rain = 0
KMC4 030904Z 13007KT 27/17 A2999 RMK A01 T02670172  RH  056%=      5-min Rain = 0
KMC4 030905Z 14009KT 27/17 A2999 RMK A01 T02670172  RH  056%=      5-min Rain = 0
KMC4 030906Z 13007KT 27/17 A2999 RMK A01 T02670172  RH  056%=      5-min Rain = 0
KMC4 030907Z 14008KT 27/17 A2999 RMK A01 T02670172  RH  056%=      5-min Rain = 0
KMC4 030908Z 13008KT 27/17 A2999 RMK A01 T02670172  RH  056%=      5-min Rain = 0
KMC4 030909Z 14008KT 27/17 A2999 RMK A01 T02670172  RH  056%=      5-min Rain = 0
KMC4 030910Z 13009KT 27/17 A2999 RMK A01 T02670172  RH  056%=      5-min Rain = 0
KMC4 030911Z 13009KT 27/17 A2999 RMK A01 T02670172  RH  056%=      5-min Rain = 0
KMC4 030912Z 14008KT 27/17 A2999 RMK A01 T02670172  RH  056%=      5-min Rain = 0
KMC4 030913Z 14008KT 27/17 A2999 RMK A01 T02670172  RH  056%=      5-min Rain = 0
KMC4 030914Z 14008KT 27/17 A2999 RMK A01 T02670172  RH  056%=      5-min Rain = 0
KMC4 030915Z 14008KT 27/17 A2999 RMK A01 T02670172  RH  056%=      5-min Rain = 0
KMC4 030916Z 14009KT 27/17 A2999 RMK A01 T02670172  RH  056%=      5-min Rain = 0
KMC4 030917Z 14009KT 27/17 A2999 RMK A01 T02670172  RH  056%=      5-min Rain = 0
KMC4 030918Z 14010KT 27/17 A2999 RMK A01 T02680172  RH  056%=      5-min Rain = 0
KMC4 030919Z 13009KT 27/17 A2999 RMK A01 T02680172  RH  056%=      5-min Rain = 0
KMC4 030920Z 14008KT 27/17 A2999 RMK A01 T02680172  RH  056%=      5-min Rain = 0
KMC4 030921Z 14009KT 27/17 A2999 RMK A01 T02680172  RH  056%=      5-min Rain = 0
KMC4 030922Z 15009KT 27/17 A2999 RMK A01 T02680172  RH  056%=      5-min Rain = 0
KMC4 030923Z 14010KT 27/17 A2999 RMK A01 T02680172  RH  056%=      5-min Rain = 0
KMC4 030924Z 15011KT 27/17 A2999 RMK A01 T02670171  RH  056%=      5-min Rain = 0
KMC4 030925Z 14008KT 27/17 A2999 RMK A01 T02680172  RH  056%=      5-min Rain = 0
KMC4 030926Z 14010KT 27/17 A2999 RMK A01 T02680171  RH  055%=      5-min Rain = 0
KMC4 030927Z 15010KT 27/17 A2999 RMK A01 T02680172  RH  055%=      5-min Rain = 0
KMC4 030928Z 14010KT 27/17 A2999 RMK A01 T02680172  RH  055%=      5-min Rain = 0
KMC4 030929Z 15010KT 27/17 A2999 RMK A01 T02680171  RH  055%=      5-min Rain = 0
KMC4 030930Z 14009KT 27/17 A2999 RMK A01 T02680171  RH  055%=      5-min Rain = 0
KMC4 030931Z 14011KT 27/17 A2999 RMK A01 T02680171  RH  055%=      5-min Rain = 0
KMC4 030932Z 14010KT 27/17 A2999 RMK A01 T02680171  RH  055%=      5-min Rain = 0
KMC4 030933Z 14010KT 27/17 A2999 RMK A01 T02680171  RH  055%=      5-min Rain = 0
KMC4 030934Z 14007KT 27/17 A2999 RMK A01 T02680171  RH  055%=      5-min Rain = 0
KMC4 030935Z 14008KT 27/17 A2999 RMK A01 T02680171  RH  055%=      5-min Rain = 0
KMC4 030936Z 14010KT 27/17 A2999 RMK A01 T02680171  RH  055%=      5-min Rain = 0
KMC4 030937Z 14009KT 27/17 A2999 RMK A01 T02680171  RH  055%=      5-min Rain = 0
KMC4 030938Z 13010KT 27/17 A2999 RMK A01 T02680171  RH  055%=      5-min Rain = 0
KMC4 030939Z 14012KT 27/17 A30 RMK A01 T02680171  RH  055%=      5-min Rain = 0
KMC4 030940Z 15011KT 27/17 A30 RMK A01 T02680171  RH  055%=      5-min Rain = 0
KMC4 030941Z 14010KT 27/17 A30 RMK A01 T02690171  RH  055%=      5-min Rain = 0
KMC4 030942Z 14012KT 27/17 A30 RMK A01 T02690171  RH  055%=      5-min Rain = 0
KMC4 030943Z 14011KT 27/17 A30 RMK A01 T02680171  RH  055%=      5-min Rain = 0
KMC4 030944Z 14009KT 27/17 A30 RMK A01 T02690171  RH  055%=      5-min Rain = 0
KMC4 030945Z 14010KT 27/17 A30 RMK A01 T02690171  RH  055%=      5-min Rain = 0
KMC4 030946Z 15013KT 27/17 A30 RMK A01 T02690171  RH  055%=      5-min Rain = 0
KMC4 030947Z 14010KT 27/17 A30 RMK A01 T02690171  RH  055%=      5-min Rain = 0
KMC4 030948Z 15009KT 27/17 A30 RMK A01 T02690170  RH  055%=      5-min Rain = 0
KMC4 030949Z 14009KT 27/17 A30 RMK A01 T02680170  RH  055%=      5-min Rain = 0
KMC4 030950Z 14008KT 27/17 A30 RMK A01 T02690171  RH  055%=      5-min Rain = 0
KMC4 030951Z 15008KT 27/17 A30 RMK A01 T02690171  RH  055%=      5-min Rain = 0
KMC4 030952Z 14009KT 27/17 A30 RMK A01 T02690172  RH  055%=      5-min Rain = 0
KMC4 030953Z 14010KT 27/17 A30 RMK A01 T02680171  RH  055%=      5-min Rain = 0
KMC4 030954Z 14009KT 27/17 A30 RMK A01 T02680171  RH  055%=      5-min Rain = 0
KMC4 030955Z 14008KT 27/17 A30 RMK A01 T02680171  RH  055%=      5-min Rain = 0
KMC4 030956Z 14012KT 27/17 A30 RMK A01 T02680171  RH  055%=      5-min Rain = 0
KMC4 030957Z 15010KT 27/17 A30 RMK A01 T02680171  RH  055%=      5-min Rain = 0
KMC4 030958Z 15010G15KT 27/17 A30 RMK A01 T02680171  RH  055%=      5-min Rain = 0
KMC4 030959Z 14009G14KT 27/17 A30 RMK A01 T02680171  RH  055%=      5-min Rain = 0
KMC4 031000Z 15009KT 27/17 A30 RMK A01 T02680171  RH  055%=      5-min Rain = 0
KMC4 031001Z 14010KT 27/17 A30 RMK A01 T02680171  RH  055%=      5-min Rain = 0
KMC4 031002Z 15010KT 27/17 A30 RMK A01 T02680171  RH  055%=      5-min Rain = 0
KMC4 031003Z 15010KT 27/17 A30 RMK A01 T02680172  RH  055%=      5-min Rain = 0
KMC4 031004Z 15011KT 27/17 A30 RMK A01 T02680171  RH  055%=      5-min Rain = 0
KMC4 031005Z 15012KT 27/17 A30 RMK A01 T02680171  RH  055%=      5-min Rain = 0
KMC4 031006Z 15011KT 27/17 A30 RMK A01 T02690172  RH  055%=      5-min Rain = 0
KMC4 031007Z 15011KT 27/17 A30 RMK A01 T02690172  RH  055%=      5-min Rain = 0
KMC4 031008Z 15009KT 27/17 A30 RMK A01 T02690172  RH  055%=      5-min Rain = 0
KMC4 031009Z 15010KT 27/17 A30 RMK A01 T02690172  RH  055%=      5-min Rain = 0
KMC4 031010Z 15008KT 27/17 A30 RMK A01 T02690172  RH  055%=      5-min Rain = 0
KMC4 031011Z 15012KT 27/17 A30 RMK A01 T02690172  RH  055%=      5-min Rain = 0
KMC4 031012Z 15012KT 27/17 A30 RMK A01 T02690172  RH  055%=      5-min Rain = 0
KMC4 031013Z 16010KT 27/17 A30 RMK A01 T02690172  RH  055%=      5-min Rain = 0
KMC4 031014Z 15008KT 27/17 A30 RMK A01 T02690172  RH  055%=      5-min Rain = 0
KMC4 031015Z 16007KT 27/17 A30 RMK A01 T02680172  RH  056%=      5-min Rain = 0
KMC4 031016Z 16006KT 27/17 A30 RMK A01 T02680172  RH  056%=      5-min Rain = 0
KMC4 031017Z 16009KT 27/17 A30 RMK A01 T02670172  RH  056%=      5-min Rain = 0
KMC4 031018Z 16010KT 27/17 A30 RMK A01 T02670172  RH  056%=      5-min Rain = 0
KMC4 031019Z 16009KT 27/17 A2999 RMK A01 T02670172  RH  056%=      5-min Rain = 0
KMC4 031020Z 16009KT 27/17 A2999 RMK A01 T02670172  RH  056%=      5-min Rain = 0
KMC4 031021Z 16007KT 27/17 A2999 RMK A01 T02670172  RH  056%=      5-min Rain = 0
KMC4 031022Z 17008KT 27/17 A2999 RMK A01 T02670172  RH  056%=      5-min Rain = 0
KMC4 031023Z 16009KT 27/17 A30 RMK A01 T02670172  RH  056%=      5-min Rain = 0
KMC4 031024Z 15011KT 27/17 A30 RMK A01 T02670172  RH  056%=      5-min Rain = 0
KMC4 031025Z 16010KT 27/17 A30 RMK A01 T02670173  RH  056%=      5-min Rain = 0
KMC4 031026Z 16007KT 27/17 A30 RMK A01 T02670173  RH  056%=      5-min Rain = 0
KMC4 031027Z 16009KT 27/17 A30 RMK A01 T02670173  RH  056%=      5-min Rain = 0
KMC4 031028Z 16008KT 27/17 A30 RMK A01 T02670173  RH  056%=      5-min Rain = 0
KMC4 031029Z 16009KT 27/17 A30 RMK A01 T02670173  RH  056%=      5-min Rain = 0
KMC4 031030Z 15009KT 27/17 A30 RMK A01 T02670173  RH  056%=      5-min Rain = 0
KMC4 031031Z 15009KT 27/17 A30 RMK A01 T02670173  RH  057%=      5-min Rain = 0
KMC4 031032Z 16008KT 27/17 A30 RMK A01 T02670173  RH  057%=      5-min Rain = 0
KMC4 031033Z 16008KT 27/17 A30 RMK A01 T02670174  RH  057%=      5-min Rain = 0
KMC4 031034Z 16010KT 27/17 A30 RMK A01 T02660174  RH  057%=      5-min Rain = 0
KMC4 031035Z 16008KT 27/17 A30 RMK A01 T02660174  RH  057%=      5-min Rain = 0
KMC4 031036Z 16010KT 27/17 A30 RMK A01 T02660174  RH  057%=      5-min Rain = 0
KMC4 031037Z 16009KT 27/17 A30 RMK A01 T02660174  RH  057%=      5-min Rain = 0
KMC4 031038Z 16010KT 27/17 A30 RMK A01 T02660174  RH  057%=      5-min Rain = 0
KMC4 031039Z 15011G16KT 27/17 A30 RMK A01 T02660174  RH  057%=      5-min Rain = 0
KMC4 031040Z 16007KT 27/18 A30 RMK A01 T02670175  RH  057%=      5-min Rain = 0
KMC4 031041Z 15008KT 27/18 A30 RMK A01 T02670175  RH  057%=      5-min Rain = 0
KMC4 031042Z 16009KT 27/18 A30 RMK A01 T02670175  RH  057%=      5-min Rain = 0
KMC4 031043Z 16007KT 27/18 A30 RMK A01 T02670175  RH  057%=      5-min Rain = 0
KMC4 031044Z 15007KT 27/18 A30 RMK A01 T02660175  RH  057%=      5-min Rain = 0
KMC4 031045Z 15008KT 27/18 A30 RMK A01 T02660175  RH  057%=      5-min Rain = 0
KMC4 031046Z 15007KT 27/18 A30 RMK A01 T02660175  RH  057%=      5-min Rain = 0
KMC4 031047Z 14007KT 27/18 A30 RMK A01 T02660175  RH  058%=      5-min Rain = 0
KMC4 031048Z 15009KT 27/18 A30 RMK A01 T02660176  RH  058%=      5-min Rain = 0
KMC4 031049Z 15008KT 27/18 A30 RMK A01 T02660176  RH  058%=      5-min Rain = 0
KMC4 031050Z 15009KT 27/18 A30 RMK A01 T02660177  RH  058%=      5-min Rain = 0
KMC4 031051Z 15009KT 27/18 A30 RMK A01 T02660177  RH  058%=      5-min Rain = 0
KMC4 031052Z 15007KT 27/18 A30 RMK A01 T02660176  RH  058%=      5-min Rain = 0
KMC4 031053Z 15009KT 27/18 A30 RMK A01 T02660177  RH  058%=      5-min Rain = 0
KMC4 031054Z 15008KT 27/18 A3001 RMK A01 T02660177  RH  058%=      5-min Rain = 0
KMC4 031055Z 14006KT 27/18 A3001 RMK A01 T02660177  RH  058%=      5-min Rain = 0
KMC4 031056Z 14007KT 27/18 A3001 RMK A01 T02660177  RH  058%=      5-min Rain = 0
KMC4 031057Z 14007KT 27/18 A3001 RMK A01 T02650177  RH  058%=      5-min Rain = 0
KMC4 031058Z 14008KT 27/18 A3001 RMK A01 T02650178  RH  059%=      5-min Rain = 0
KMC4 031059Z 15007KT 27/18 A3001 RMK A01 T02650178  RH  059%=      5-min Rain = 0
KMC4 031100Z 14006KT 27/18 A3001 RMK A01 T02650178  RH  059%=      5-min Rain = 0
KMC4 031101Z 14007KT 27/18 A3001 RMK A01 T02650178  RH  059%=      5-min Rain = 0
KMC4 031102Z 14008KT 27/18 A3001 RMK A01 T02650179  RH  059%=      5-min Rain = 0
KMC4 031103Z 14007KT 27/18 A3001 RMK A01 T02650179  RH  059%=      5-min Rain = 0
KMC4 031104Z 14009KT 27/18 A3001 RMK A01 T02650179  RH  059%=      5-min Rain = 0
KMC4 031105Z 14009KT 27/18 A3001 RMK A01 T02650180  RH  060%=      5-min Rain = 0
KMC4 031106Z 14007KT 27/18 A3001 RMK A01 T02650180  RH  060%=      5-min Rain = 0
KMC4 031107Z 14010KT 27/18 A3001 RMK A01 T02650180  RH  060%=      5-min Rain = 0
KMC4 031108Z 14010KT 27/18 A3001 RMK A01 T02650181  RH  060%=      5-min Rain = 0
KMC4 031109Z 15010KT 27/18 A3001 RMK A01 T02650182  RH  060%=      5-min Rain = 0
KMC4 031110Z 15012KT 27/18 A3001 RMK A01 T02650182  RH  060%=      5-min Rain = 0
KMC4 031111Z 15011KT 27/18 A3001 RMK A01 T02650183  RH  061%=      5-min Rain = 0
KMC4 031112Z 15009KT 27/18 A3001 RMK A01 T02650183  RH  061%=      5-min Rain = 0
KMC4 031113Z 14012KT 27/18 A3001 RMK A01 T02650183  RH  061%=      5-min Rain = 0
KMC4 031114Z 15012KT 27/18 A3001 RMK A01 T02650183  RH  061%=      5-min Rain = 0
KMC4 031115Z 14011KT 27/18 A3001 RMK A01 T02650184  RH  061%=      5-min Rain = 0
KMC4 031116Z 14011KT 27/18 A3001 RMK A01 T02650184  RH  061%=      5-min Rain = 0
KMC4 031117Z 16011KT 27/18 A3002 RMK A01 T02650184  RH  061%=      5-min Rain = 0
KMC4 031118Z 16012KT 27/19 A3001 RMK A01 T02650185  RH  061%=      5-min Rain = 0
KMC4 031119Z 16011KT 27/19 A3001 RMK A01 T02650185  RH  061%=      5-min Rain = 0
KMC4 031120Z 15012KT 26/19 A3001 RMK A01 T02640185  RH  062%=      5-min Rain = 0
KMC4 031121Z 15010KT 27/19 A3001 RMK A01 T02650186  RH  062%=      5-min Rain = 0
KMC4 031122Z 15009KT 26/19 A3001 RMK A01 T02640185  RH  062%=      5-min Rain = 0
KMC4 031123Z 15011KT 26/19 A3001 RMK A01 T02640186  RH  062%=      5-min Rain = 0
KMC4 031124Z 15012KT 26/19 A3001 RMK A01 T02640186  RH  062%=      5-min Rain = 0
KMC4 031125Z 14011KT 26/19 A3001 RMK A01 T02640187  RH  062%=      5-min Rain = 0
KMC4 031126Z 15012KT 26/19 A3001 RMK A01 T02640187  RH  063%=      5-min Rain = 0
KMC4 031127Z 15011KT 26/19 A3001 RMK A01 T02640187  RH  063%=      5-min Rain = 0
KMC4 031128Z 16011KT 26/19 A3001 RMK A01 T02630187  RH  063%=      5-min Rain = 0
KMC4 031129Z 15011KT 26/19 A3002 RMK A01 T02640188  RH  063%=      5-min Rain = 0
KMC4 031130Z 16010KT 26/19 A3002 RMK A01 T02640188  RH  063%=      5-min Rain = 0
KMC4 031131Z 16012KT 26/19 A3002 RMK A01 T02630188  RH  063%=      5-min Rain = 0
KMC4 031132Z 15010KT 26/19 A3002 RMK A01 T02630188  RH  064%=      5-min Rain = 0
KMC4 031133Z 14010KT 26/19 A3002 RMK A01 T02630189  RH  064%=      5-min Rain = 0
KMC4 031134Z 14013KT 26/19 A3002 RMK A01 T02630189  RH  064%=      5-min Rain = 0
KMC4 031135Z 14013KT 26/19 A3002 RMK A01 T02630190  RH  064%=      5-min Rain = 0
KMC4 031136Z 15010KT 26/19 A3002 RMK A01 T02630190  RH  064%=      5-min Rain = 0
KMC4 031137Z 15010KT 26/19 A3002 RMK A01 T02630190  RH  064%=      5-min Rain = 0
KMC4 031138Z 15013G19KT 26/19 A3002 RMK A01 T02620190  RH  064%=      5-min Rain = 0
KMC4 031139Z 15014KT 26/19 A3002 RMK A01 T02620191  RH  065%=      5-min Rain = 0
KMC4 031140Z 15013KT 26/19 A3002 RMK A01 T02620191  RH  065%=      5-min Rain = 0
KMC4 031141Z 14013KT 26/19 A3002 RMK A01 T02620191  RH  065%=      5-min Rain = 0
KMC4 031142Z 13015KT 26/19 A3002 RMK A01 T02620192  RH  065%=      5-min Rain = 0
KMC4 031143Z 14015KT 26/19 A3002 RMK A01 T02620192  RH  066%=      5-min Rain = 0
KMC4 031144Z 15011KT 26/19 A3002 RMK A01 T02620192  RH  066%=      5-min Rain = 0
KMC4 031145Z 14013KT 26/19 A3002 RMK A01 T02620192  RH  066%=      5-min Rain = 0
KMC4 031146Z 14015KT 26/19 A3002 RMK A01 T02610193  RH  066%=      5-min Rain = 0
KMC4 031147Z 14013KT 26/19 A3002 RMK A01 T02610193  RH  066%=      5-min Rain = 0
KMC4 031148Z 15013KT 26/19 A3002 RMK A01 T02610193  RH  066%=      5-min Rain = 0
KMC4 031149Z 14013KT 26/19 A3002 RMK A01 T02610194  RH  066%=      5-min Rain = 0
KMC4 031150Z 13011KT 26/19 A3002 RMK A01 T02610193  RH  066%=      5-min Rain = 0
KMC4 031151Z 14009KT 26/19 A3002 RMK A01 T02610193  RH  066%=      5-min Rain = 0
KMC4 031152Z 14009KT 26/19 A3002 RMK A01 T02610193  RH  066%=      5-min Rain = 0
KMC4 031153Z 13009KT 26/19 A3002 RMK A01 T02600193  RH  066%=      5-min Rain = 0
KMC4 031154Z 14012KT 26/19 A3002 RMK A01 T02600194  RH  067%=      5-min Rain = 0
KMC4 031155Z 13012KT 26/19 A3002 RMK A01 T02600194  RH  067%=      5-min Rain = 0
KMC4 031156Z 13012KT 26/19 A3002 RMK A01 T02600194  RH  067%=      5-min Rain = 0
KMC4 031157Z 13013KT 26/19 A3002 RMK A01 T02600194  RH  067%=      5-min Rain = 0
KMC4 031158Z 13011KT 26/19 A3002 RMK A01 T02600194  RH  067%=      5-min Rain = 0
KMC4 031159Z 14011KT 26/19 A3002 RMK A01 T02600194  RH  067%=      5-min Rain = 0
KMC4 031200Z 14009KT 26/20 A3002 RMK A01 T02600195  RH  067%=      5-min Rain = 0
KMC4 031201Z 14011KT 26/19 A3002 RMK A01 T02590194  RH  067%=      5-min Rain = 0
KMC4 031202Z 14013KT 26/20 A3002 RMK A01 T02590195  RH  068%=      5-min Rain = 0
KMC4 031203Z 14014KT 26/20 A3002 RMK A01 T02590196  RH  068%=      5-min Rain = 0
KMC4 031204Z 14012KT 26/20 A3002 RMK A01 T02590196  RH  068%=      5-min Rain = 0
KMC4 031205Z 14012KT 26/20 A3002 RMK A01 T02590196  RH  068%=      5-min Rain = 0
KMC4 031206Z 14013KT 26/20 A3002 RMK A01 T02590196  RH  068%=      5-min Rain = 0
KMC4 031207Z 14013KT 26/20 A3002 RMK A01 T02590196  RH  068%=      5-min Rain = 0
KMC4 031208Z 14014KT 26/20 A3002 RMK A01 T02590196  RH  068%=      5-min Rain = 0
KMC4 031209Z 14014KT 26/20 A3002 RMK A01 T02590196  RH  068%=      5-min Rain = 0
KMC4 031210Z 14013KT 26/20 A3002 RMK A01 T02590196  RH  068%=      5-min Rain = 0
KMC4 031211Z 14014KT 26/20 A3003 RMK A01 T02590196  RH  068%=      5-min Rain = 0
KMC4 031212Z 14014KT 26/20 A3003 RMK A01 T02590197  RH  069%=      5-min Rain = 0
KMC4 031213Z 14013KT 26/20 A3003 RMK A01 T02590197  RH  069%=      5-min Rain = 0
KMC4 031214Z 14010KT 26/20 A3003 RMK A01 T02590197  RH  069%=      5-min Rain = 0
KMC4 031215Z 13013G18KT 26/20 A3003 RMK A01 T02590197  RH  069%=      5-min Rain = 0
KMC4 031216Z 14015KT 26/20 A3003 RMK A01 T02580197  RH  069%=      5-min Rain = 0
KMC4 031217Z 14012KT 26/20 A3003 RMK A01 T02590197  RH  069%=      5-min Rain = 0
KMC4 031218Z 13010KT 26/20 A3003 RMK A01 T02590197  RH  069%=      5-min Rain = 0
KMC4 031219Z 14011KT 26/20 A3003 RMK A01 T02580197  RH  069%=      5-min Rain = 0
KMC4 031220Z 14011KT 26/20 A3003 RMK A01 T02580197  RH  069%=      5-min Rain = 0
KMC4 031221Z 14009KT 26/20 A3003 RMK A01 T02580197  RH  069%=      5-min Rain = 0
KMC4 031222Z 14009KT 26/20 A3003 RMK A01 T02570197  RH  069%=      5-min Rain = 0
KMC4 031223Z 14011KT 26/20 A3003 RMK A01 T02580198  RH  069%=      5-min Rain = 0
KMC4 031224Z 15013KT 26/20 A3003 RMK A01 T02580198  RH  070%=      5-min Rain = 0
KMC4 031225Z 14010KT 26/20 A3003 RMK A01 T02570198  RH  070%=      5-min Rain = 0
KMC4 031226Z 13011KT 26/20 A3003 RMK A01 T02580198  RH  070%=      5-min Rain = 0
KMC4 031227Z 14012KT 26/20 A3003 RMK A01 T02580198  RH  069%=      5-min Rain = 0
KMC4 031228Z 13012KT 26/20 A3003 RMK A01 T02580198  RH  069%=      5-min Rain = 0
KMC4 031229Z 13010KT 26/20 A3003 RMK A01 T02580198  RH  069%=      5-min Rain = 0
KMC4 031230Z 13011KT 26/20 A3003 RMK A01 T02580198  RH  069%=      5-min Rain = 0
KMC4 031231Z 12013KT 26/20 A3003 RMK A01 T02580198  RH  070%=      5-min Rain = 0
KMC4 031232Z 13012KT 26/20 A3003 RMK A01 T02580199  RH  070%=      5-min Rain = 0
KMC4 031233Z 14011KT 26/20 A3003 RMK A01 T02580199  RH  070%=      5-min Rain = 0
KMC4 031234Z 14010KT 26/20 A3003 RMK A01 T02580199  RH  070%=      5-min Rain = 0
KMC4 031235Z 13009KT 26/20 A3003 RMK A01 T02580199  RH  070%=      5-min Rain = 0
KMC4 031236Z 13009KT 26/20 A3003 RMK A01 T02580199  RH  070%=      5-min Rain = 0
KMC4 031237Z 14008KT 26/20 A3003 RMK A01 T02580199  RH  070%=      5-min Rain = 0
KMC4 031238Z 14011KT 26/20 A3003 RMK A01 T02580199  RH  070%=      5-min Rain = 0
KMC4 031239Z 14010KT 26/20 A3003 RMK A01 T02580199  RH  070%=      5-min Rain = 0
KMC4 031240Z 13011KT 26/20 A3003 RMK A01 T02580199  RH  070%=      5-min Rain = 0
KMC4 031241Z 14009KT 26/20 A3003 RMK A01 T02580199  RH  070%=      5-min Rain = 0
KMC4 031242Z 13007KT 26/20 A3003 RMK A01 T02580199  RH  070%=      5-min Rain = 0
KMC4 031243Z 13009KT 26/20 A3003 RMK A01 T02590200  RH  070%=      5-min Rain = 0
KMC4 031244Z 13009KT 26/20 A3003 RMK A01 T02580200  RH  070%=      5-min Rain = 0
KMC4 031245Z 14008KT 26/20 A3003 RMK A01 T02590201  RH  070%=      5-min Rain = 0
KMC4 031246Z 13007KT 26/20 A3003 RMK A01 T02580200  RH  070%=      5-min Rain = 0
KMC4 031247Z 13007KT 26/20 A3003 RMK A01 T02580200  RH  070%=      5-min Rain = 0
KMC4 031248Z 13007KT 26/20 A3003 RMK A01 T02580201  RH  070%=      5-min Rain = 0
KMC4 031249Z 13009KT 26/20 A3003 RMK A01 T02580201  RH  070%=      5-min Rain = 0
KMC4 031250Z 13010KT 26/20 A3004 RMK A01 T02580201  RH  071%=      5-min Rain = 0
KMC4 031251Z 13011KT 26/20 A3004 RMK A01 T02590201  RH  071%=      5-min Rain = 0
KMC4 031252Z 13011KT 26/20 A3004 RMK A01 T02580201  RH  071%=      5-min Rain = 0
KMC4 031253Z 13010KT 26/20 A3004 RMK A01 T02580201  RH  071%=      5-min Rain = 0
KMC4 031254Z 14009KT 26/20 A3004 RMK A01 T02590201  RH  070%=      5-min Rain = 0
KMC4 031255Z 14011KT 26/20 A3004 RMK A01 T02590201  RH  070%=      5-min Rain = 0
KMC4 031256Z 14011KT 26/20 A3004 RMK A01 T02600201  RH  070%=      5-min Rain = 0
KMC4 031257Z 14011KT 26/20 A3004 RMK A01 T02600201  RH  070%=      5-min Rain = 0
KMC4 031258Z 14010KT 26/20 A3004 RMK A01 T02600201  RH  070%=      5-min Rain = 0
KMC4 031259Z 15011KT 26/20 A3004 RMK A01 T02600201  RH  070%=      5-min Rain = 0
KMC4 031300Z 14010KT 26/20 A3004 RMK A01 T02600201  RH  070%=      5-min Rain = 0
KMC4 031301Z 13007KT 26/20 A3004 RMK A01 T02600201  RH  070%=      5-min Rain = 0
KMC4 031302Z 12010KT 26/20 A3004 RMK A01 T02610202  RH  070%=      5-min Rain = 0
KMC4 031303Z 13011KT 26/20 A3004 RMK A01 T02620202  RH  070%=      5-min Rain = 0
KMC4 031304Z 14009KT 26/20 A3004 RMK A01 T02610202  RH  070%=      5-min Rain = 0
KMC4 031305Z 14011KT 26/20 A3004 RMK A01 T02610202  RH  070%=      5-min Rain = 0
KMC4 031306Z 14012KT 26/20 A3004 RMK A01 T02610202  RH  070%=      5-min Rain = 0
KMC4 031307Z 14011KT 26/20 A3004 RMK A01 T02610202  RH  070%=      5-min Rain = 0
KMC4 031308Z 14009KT 26/20 A3004 RMK A01 T02610202  RH  070%=      5-min Rain = 0
KMC4 031309Z 13009KT 26/20 A3004 RMK A01 T02620202  RH  070%=      5-min Rain = 0
KMC4 031310Z 13010KT 26/20 A3004 RMK A01 T02620202  RH  070%=      5-min Rain = 0
KMC4 031311Z 14009KT 26/20 A3004 RMK A01 T02620202  RH  070%=      5-min Rain = 0
KMC4 031312Z 14009KT 26/20 A3004 RMK A01 T02610202  RH  070%=      5-min Rain = 0
KMC4 031313Z 14008KT 26/20 A3004 RMK A01 T02610202  RH  070%=      5-min Rain = 0
KMC4 031314Z 14010KT 26/20 A3004 RMK A01 T02610202  RH  070%=      5-min Rain = 0
KMC4 031315Z 13010KT 26/20 A3004 RMK A01 T02620202  RH  070%=      5-min Rain = 0
KMC4 031316Z 14009KT 26/20 A3004 RMK A01 T02620202  RH  070%=      5-min Rain = 0
KMC4 031317Z 15007G12KT 26/20 A3004 RMK A01 T02630203  RH  070%=      5-min Rain = 0
KMC4 031318Z 14009KT 26/20 A3004 RMK A01 T02640203  RH  069%=      5-min Rain = 0
KMC4 031319Z 15011KT 27/20 A3005 RMK A01 T02650202  RH  069%=      5-min Rain = 0
KMC4 031320Z 15010KT 27/20 A3005 RMK A01 T02650202  RH  068%=      5-min Rain = 0
KMC4 031321Z 15010KT 27/20 A3005 RMK A01 T02650203  RH  069%=      5-min Rain = 0
KMC4 031322Z 15008KT 27/20 A3005 RMK A01 T02650203  RH  069%=      5-min Rain = 0
KMC4 031323Z 15011KT 27/20 A3005 RMK A01 T02660203  RH  068%=      5-min Rain = 0
KMC4 031324Z 15011KT 27/20 A3005 RMK A01 T02660202  RH  068%=      5-min Rain = 0
KMC4 031325Z 15012KT 27/20 A3005 RMK A01 T02650202  RH  068%=      5-min Rain = 0
KMC4 031326Z 14012KT 27/20 A3005 RMK A01 T02660202  RH  068%=      5-min Rain = 0
KMC4 031327Z 14011KT 27/20 A3005 RMK A01 T02650202  RH  068%=      5-min Rain = 0
KMC4 031328Z 15012KT 27/20 A3005 RMK A01 T02650202  RH  068%=      5-min Rain = 0
KMC4 031329Z 13011KT 27/20 A3005 RMK A01 T02650202  RH  068%=      5-min Rain = 0
KMC4 031330Z 13012KT 27/20 A3005 RMK A01 T02660202  RH  068%=      5-min Rain = 0
KMC4 031331Z 13011KT 27/20 A3005 RMK A01 T02660203  RH  068%=      5-min Rain = 0
KMC4 031332Z 14009KT 27/20 A3005 RMK A01 T02650203  RH  069%=      5-min Rain = 0
KMC4 031333Z 13012KT 27/20 A3005 RMK A01 T02660203  RH  068%=      5-min Rain = 0
KMC4 031334Z 14013KT 27/20 A3005 RMK A01 T02670202  RH  068%=      5-min Rain = 0
KMC4 031335Z 13011KT 27/20 A3005 RMK A01 T02670202  RH  068%=      5-min Rain = 0
KMC4 031336Z 15012KT 27/20 A3005 RMK A01 T02670202  RH  068%=      5-min Rain = 0
KMC4 031337Z 14010KT 27/20 A3005 RMK A01 T02670202  RH  067%=      5-min Rain = 0
KMC4 031338Z 15011KT 27/20 A3005 RMK A01 T02680202  RH  067%=      5-min Rain = 0
KMC4 031339Z 15011KT 27/20 A3005 RMK A01 T02680201  RH  067%=      5-min Rain = 0
KMC4 031340Z 13012KT 27/20 A3005 RMK A01 T02680201  RH  067%=      5-min Rain = 0
KMC4 031341Z 15011KT 27/20 A3005 RMK A01 T02680202  RH  067%=      5-min Rain = 0
KMC4 031342Z 15013KT 27/20 A3005 RMK A01 T02680201  RH  067%=      5-min Rain = 0
KMC4 031343Z 14013KT 27/20 A3005 RMK A01 T02680201  RH  067%=      5-min Rain = 0
KMC4 031344Z 13014KT 27/20 A3005 RMK A01 T02680201  RH  067%=      5-min Rain = 0
KMC4 031345Z 13014KT 27/20 A3005 RMK A01 T02680200  RH  066%=      5-min Rain = 0
KMC4 031346Z 14013KT 27/20 A3005 RMK A01 T02680199  RH  066%=      5-min Rain = 0
KMC4 031347Z 14011KT 27/20 A3005 RMK A01 T02680200  RH  066%=      5-min Rain = 0
KMC4 031348Z 15012KT 27/20 A3005 RMK A01 T02690201  RH  066%=      5-min Rain = 0
KMC4 031349Z 15011KT 27/20 A3005 RMK A01 T02700201  RH  066%=      5-min Rain = 0
KMC4 031350Z 14009KT 27/20 A3005 RMK A01 T02700202  RH  066%=      5-min Rain = 0
KMC4 031351Z 14008KT 27/20 A3005 RMK A01 T02710202  RH  066%=      5-min Rain = 0
KMC4 031352Z 13008KT 27/20 A3005 RMK A01 T02720201  RH  065%=      5-min Rain = 0
KMC4 031353Z 13011KT 27/20 A3005 RMK A01 T02730201  RH  065%=      5-min Rain = 0
KMC4 031354Z 13015KT 27/20 A3005 RMK A01 T02730200  RH  065%=      5-min Rain = 0
KMC4 031355Z 14013KT 27/20 A3005 RMK A01 T02720200  RH  065%=      5-min Rain = 0
KMC4 031356Z 14013KT 27/20 A3005 RMK A01 T02710200  RH  065%=      5-min Rain = 0
KMC4 031357Z 14011KT 27/20 A3005 RMK A01 T02700200  RH  066%=      5-min Rain = 0
KMC4 031358Z 14009KT 27/20 A3005 RMK A01 T02700201  RH  066%=      5-min Rain = 0
KMC4 031359Z 13011KT 27/20 A3005 RMK A01 T02730201  RH  065%=      5-min Rain = 0
KMC4 031400Z 15012KT 27/20 A3005 RMK A01 T02740200  RH  064%=      5-min Rain = 0
KMC4 031401Z 15012KT 27/20 A3005 RMK A01 T02730200  RH  064%=      5-min Rain = 0
KMC4 031402Z 16011KT 27/20 A3005 RMK A01 T02710200  RH  065%=      5-min Rain = 0
KMC4 031403Z 14009KT 27/20 A3005 RMK A01 T02710201  RH  065%=      5-min Rain = 0
KMC4 031404Z 14011KT 27/20 A3005 RMK A01 T02730201  RH  065%=      5-min Rain = 0
KMC4 031405Z 15010KT 27/20 A3005 RMK A01 T02730201  RH  065%=      5-min Rain = 0
KMC4 031406Z 14012KT 27/20 A3005 RMK A01 T02740201  RH  065%=      5-min Rain = 0
KMC4 031407Z 13013KT 27/20 A3005 RMK A01 T02740200  RH  064%=      5-min Rain = 0
KMC4 031408Z 13015KT 27/20 A3005 RMK A01 T02730200  RH  064%=      5-min Rain = 0
KMC4 031409Z 14013KT 27/20 A3005 RMK A01 T02720200  RH  065%=      5-min Rain = 0
KMC4 031410Z 14010KT 27/20 A3005 RMK A01 T02720200  RH  065%=      5-min Rain = 0
KMC4 031411Z 14010KT 27/20 A3005 RMK A01 T02730201  RH  065%=      5-min Rain = 0
KMC4 031412Z 15013KT 28/20 A3005 RMK A01 T02750201  RH  064%=      5-min Rain = 0
KMC4 031413Z 15011KT 28/20 A3005 RMK A01 T02750200  RH  064%=      5-min Rain = 0
KMC4 031414Z 15010KT 28/20 A3005 RMK A01 T02750200  RH  064%=      5-min Rain = 0
KMC4 031415Z 15015KT 28/20 A3005 RMK A01 T02750200  RH  064%=      5-min Rain = 0
KMC4 031416Z 15016KT 28/20 A3005 RMK A01 T02750199  RH  063%=      5-min Rain = 0
KMC4 031417Z 14015KT 27/20 A3006 RMK A01 T02740199  RH  064%=      5-min Rain = 0
KMC4 031418Z 13013G19KT 27/20 A3006 RMK A01 T02730200  RH  064%=      5-min Rain = 0
KMC4 031419Z 14013KT 27/20 A3006 RMK A01 T02730200  RH  064%=      5-min Rain = 0
KMC4 031420Z 14013KT 27/20 A3006 RMK A01 T02740200  RH  064%=      5-min Rain = 0
KMC4 031421Z 14013KT 28/20 A3006 RMK A01 T02750200  RH  064%=      5-min Rain = 0
KMC4 031422Z 15011KT 28/20 A3006 RMK A01 T02760200  RH  063%=      5-min Rain = 0
KMC4 031423Z 16012KT 28/20 A3006 RMK A01 T02770201  RH  063%=      5-min Rain = 0
KMC4 031424Z 15012KT 28/20 A3006 RMK A01 T02770200  RH  063%=      5-min Rain = 0
KMC4 031425Z 13014KT 28/20 A3006 RMK A01 T02760200  RH  063%=      5-min Rain = 0
KMC4 031426Z 13013KT 28/20 A3006 RMK A01 T02750201  RH  064%=      5-min Rain = 0
KMC4 031427Z 13013KT 28/20 A3006 RMK A01 T02750200  RH  064%=      5-min Rain = 0
KMC4 031428Z 13014KT 28/20 A3006 RMK A01 T02750200  RH  064%=      5-min Rain = 0
KMC4 031429Z 14011KT 28/20 A3006 RMK A01 T02750200  RH  064%=      5-min Rain = 0
KMC4 031430Z 15013KT 28/20 A3006 RMK A01 T02770200  RH  063%=      5-min Rain = 0
KMC4 031431Z 15013KT 28/20 A3006 RMK A01 T02770200  RH  063%=      5-min Rain = 0
KMC4 031432Z 15014KT 28/20 A3006 RMK A01 T02760200  RH  063%=      5-min Rain = 0
KMC4 031433Z 12013KT 28/20 A3006 RMK A01 T02760201  RH  064%=      5-min Rain = 0
KMC4 031434Z 13012KT 28/20 A3006 RMK A01 T02750201  RH  064%=      5-min Rain = 0
KMC4 031435Z 13012KT 28/20 A3006 RMK A01 T02750200  RH  064%=      5-min Rain = 0
KMC4 031436Z 14013KT 28/20 A3006 RMK A01 T02750201  RH  064%=      5-min Rain = 0
KMC4 031437Z 14012KT 28/20 A3006 RMK A01 T02760201  RH  064%=      5-min Rain = 0
KMC4 031438Z 13014KT 28/20 A3006 RMK A01 T02770201  RH  063%=      5-min Rain = 0
KMC4 031439Z 13010KT 28/20 A3006 RMK A01 T02770201  RH  063%=      5-min Rain = 0
KMC4 031440Z 14014KT 28/20 A3006 RMK A01 T02780201  RH  063%=      5-min Rain = 0
KMC4 031441Z 13012KT 28/20 A3006 RMK A01 T02790201  RH  062%=      5-min Rain = 0
KMC4 031442Z 13011KT 28/20 A3006 RMK A01 T02800200  RH  062%=      5-min Rain = 0
KMC4 031443Z 15009KT 28/20 A3006 RMK A01 T02810201  RH  062%=      5-min Rain = 0
KMC4 031444Z 16012KT 28/20 A3006 RMK A01 T02820201  RH  062%=      5-min Rain = 0
KMC4 031445Z 16011KT 28/20 A3006 RMK A01 T02810201  RH  062%=      5-min Rain = 0
KMC4 031446Z 14009KT 28/20 A3006 RMK A01 T02800202  RH  062%=      5-min Rain = 0
KMC4 031447Z 15011KT 28/20 A3006 RMK A01 T02830202  RH  061%=      5-min Rain = 0
KMC4 031448Z 15012KT 29/20 A3006 RMK A01 T02850201  RH  061%=      5-min Rain = 0
KMC4 031449Z 13011G16KT 29/20 A3006 RMK A01 T02850201  RH  060%=      5-min Rain = 0
KMC4 031450Z 14012KT 29/20 A3006 RMK A01 T02850201  RH  060%=      5-min Rain = 0
KMC4 031451Z 15011KT 29/20 A3006 RMK A01 T02870202  RH  060%=      5-min Rain = 0
KMC4 031452Z 15011KT 29/20 A3006 RMK A01 T02870201  RH  060%=      5-min Rain = 0
KMC4 031453Z 14012KT 29/20 A3006 RMK A01 T02870201  RH  060%=      5-min Rain = 0
KMC4 031454Z 15011KT 29/20 A3006 RMK A01 T02860200  RH  060%=      5-min Rain = 0
KMC4 031455Z 17012KT 29/20 A3006 RMK A01 T02850201  RH  060%=      5-min Rain = 0
KMC4 031456Z 15011KT 29/20 A3006 RMK A01 T02850200  RH  060%=      5-min Rain = 0
KMC4 031457Z 15013KT 28/20 A3006 RMK A01 T02840200  RH  060%=      5-min Rain = 0
KMC4 031458Z 15013KT 28/20 A3006 RMK A01 T02830200  RH  061%=      5-min Rain = 0
KMC4 031459Z 15014KT 28/20 A3006 RMK A01 T02820200  RH  061%=      5-min Rain = 0
KMC4 031500Z 15014KT 28/20 A3006 RMK A01 T02820199  RH  061%=      5-min Rain = 0
KMC4 031501Z 16012KT 28/20 A3006 RMK A01 T02830199  RH  061%=      5-min Rain = 0
KMC4 031502Z 16012KT 28/20 A3006 RMK A01 T02830200  RH  061%=      5-min Rain = 0
KMC4 031503Z 15012KT 28/20 A3006 RMK A01 T02840200  RH  060%=      5-min Rain = 0
KMC4 031504Z 15011KT 29/20 A3006 RMK A01 T02850201  RH  060%=      5-min Rain = 0
KMC4 031505Z 15010KT 29/20 A3006 RMK A01 T02880201  RH  059%=      5-min Rain = 0
KMC4 031506Z 14011KT 29/20 A3006 RMK A01 T02880201  RH  060%=      5-min Rain = 0
KMC4 031507Z 13012KT 29/20 A3006 RMK A01 T02870201  RH  060%=      5-min Rain = 0
KMC4 031508Z 13012KT 29/20 A3006 RMK A01 T02860200  RH  060%=      5-min Rain = 0
KMC4 031509Z 15012KT 29/20 A3006 RMK A01 T02850200  RH  060%=      5-min Rain = 0
KMC4 031510Z 14009KT 29/20 A3006 RMK A01 T02850201  RH  060%=      5-min Rain = 0
KMC4 031511Z 13011KT 29/20 A3006 RMK A01 T02870201  RH  060%=      5-min Rain = 0
KMC4 031512Z 13011KT 29/20 A3006 RMK A01 T02870201  RH  059%=      5-min Rain = 0
KMC4 031513Z 14010KT 29/20 A3006 RMK A01 T02890202  RH  059%=      5-min Rain = 0
KMC4 031514Z 17011KT 29/20 A3006 RMK A01 T02900202  RH  059%=      5-min Rain = 0
KMC4 031515Z 16012KT 29/20 A3006 RMK A01 T02920201  RH  058%=      5-min Rain = 0
KMC4 031516Z 15011KT 29/20 A3006 RMK A01 T02910201  RH  058%=      5-min Rain = 0
KMC4 031517Z 16011KT 29/20 A3006 RMK A01 T02910200  RH  058%=      5-min Rain = 0
KMC4 031518Z 15010KT 29/20 A3006 RMK A01 T02910200  RH  058%=      5-min Rain = 0
KMC4 031519Z 15010KT 29/20 A3006 RMK A01 T02910201  RH  058%=      5-min Rain = 0
KMC4 031520Z 15010KT 29/20 A3006 RMK A01 T02930202  RH  058%=      5-min Rain = 0
KMC4 031521Z 13010KT 29/20 A3006 RMK A01 T02930202  RH  058%=      5-min Rain = 0
KMC4 031522Z 12009KT 29/20 A3006 RMK A01 T02930201  RH  057%=      5-min Rain = 0
KMC4 031523Z 14008KT 29/20 A3006 RMK A01 T02920201  RH  058%=      5-min Rain = 0
KMC4 031524Z 14010KT 29/20 A3006 RMK A01 T02920201  RH  058%=      5-min Rain = 0
KMC4 031525Z 13009KT 29/20 A3006 RMK A01 T02940201  RH  057%=      5-min Rain = 0
KMC4 031526Z 13013KT 29/20 A3006 RMK A01 T02940201  RH  057%=      5-min Rain = 0
KMC4 031527Z 14012KT 29/20 A3006 RMK A01 T02920201  RH  058%=      5-min Rain = 0
KMC4 031528Z 15011KT 29/20 A3006 RMK A01 T02920201  RH  058%=      5-min Rain = 0
KMC4 031529Z 14013KT 29/20 A3006 RMK A01 T02930201  RH  058%=      5-min Rain = 0
KMC4 031530Z 14010KT 29/20 A3006 RMK A01 T02920201  RH  058%=      5-min Rain = 0
KMC4 031531Z 15010KT 29/20 A3006 RMK A01 T02930201  RH  058%=      5-min Rain = 0
KMC4 031532Z 14010G15KT 29/20 A3006 RMK A01 T02920200  RH  058%=      5-min Rain = 0
KMC4 031533Z 15011KT 29/20 A3006 RMK A01 T02930201  RH  058%=      5-min Rain = 0
KMC4 031534Z 16011KT 30/20 A3006 RMK A01 T02950203  RH  057%=      5-min Rain = 0
KMC4 031535Z 16011KT 30/20 A3006 RMK A01 T02950202  RH  057%=      5-min Rain = 0
KMC4 031536Z 13010KT 29/20 A3006 RMK A01 T02940203  RH  058%=      5-min Rain = 0
KMC4 031537Z 13012KT 30/20 A3006 RMK A01 T02960203  RH  057%=      5-min Rain = 0
KMC4 031538Z 13010KT 30/20 A3006 RMK A01 T02980203  RH  057%=      5-min Rain = 0
KMC4 031539Z 13008KT 30/20 A3006 RMK A01 T02970203  RH  057%=      5-min Rain = 0
KMC4 031540Z 12010KT 30/20 A3006 RMK A01 T02990203  RH  056%=      5-min Rain = 0
KMC4 031541Z 14011KT 30/20 A3006 RMK A01 T02990202  RH  056%=      5-min Rain = 0
KMC4 031542Z 12012KT 30/20 A3006 RMK A01 T02970203  RH  057%=      5-min Rain = 0
KMC4 031543Z 14012KT 30/20 A3006 RMK A01 T02970203  RH  057%=      5-min Rain = 0
KMC4 031544Z 14007KT 30/20 A3006 RMK A01 T02970202  RH  057%=      5-min Rain = 0
KMC4 031545Z 13009KT 30/20 A3006 RMK A01 T02970203  RH  057%=      5-min Rain = 0
KMC4 031546Z 12009KT 30/20 A3006 RMK A01 T02980201  RH  056%=      5-min Rain = 0
KMC4 031547Z 14008KT 30/20 A3005 RMK A01 T02980201  RH  056%=      5-min Rain = 0
KMC4 031548Z 12010KT 30/20 A3005 RMK A01 T03000202  RH  056%=      5-min Rain = 0
KMC4 031549Z 14011KT 30/20 A3005 RMK A01 T03030201  RH  055%=      5-min Rain = 0
KMC4 031550Z 17007KT 31/20 A3005 RMK A01 T03050200  RH  053%=      5-min Rain = 0
KMC4 031551Z 16011KT 30/20 A3005 RMK A01 T03040199  RH  053%=      5-min Rain = 0
KMC4 031552Z 15012KT 30/20 A3005 RMK A01 T03030198  RH  053%=      5-min Rain = 0
KMC4 031553Z 15012KT 31/20 A3005 RMK A01 T03050198  RH  053%=      5-min Rain = 0
KMC4 031554Z 16009KT 31/20 A3005 RMK A01 T03050199  RH  053%=      5-min Rain = 0
KMC4 031555Z 15009KT 30/20 A3005 RMK A01 T03030199  RH  054%=      5-min Rain = 0
KMC4 031556Z 14011KT 30/20 A3005 RMK A01 T03030199  RH  054%=      5-min Rain = 0
KMC4 031557Z 13013KT 30/20 A3005 RMK A01 T03040201  RH  054%=      5-min Rain = 0
KMC4 031558Z 12012KT 30/20 A3005 RMK A01 T03020201  RH  055%=      5-min Rain = 0
KMC4 031559Z 13012KT 30/20 A3005 RMK A01 T03010201  RH  055%=      5-min Rain = 0
KMC4 031600Z 13010KT 30/20 A3005 RMK A01 T03010200  RH  055%=      5-min Rain = 0
KMC4 031601Z 15011KT 30/20 A3005 RMK A01 T03030199  RH  054%=      5-min Rain = 0
KMC4 031602Z 16009KT 31/20 A3005 RMK A01 T03060197  RH  052%=      5-min Rain = 0
KMC4 031603Z 14008G14KT 31/20 A3005 RMK A01 T03050198  RH  053%=      5-min Rain = 0
KMC4 031604Z 14012KT 31/20 A3005 RMK A01 T03050198  RH  053%=      5-min Rain = 0
KMC4 031605Z 14012KT 31/20 A3005 RMK A01 T03050197  RH  053%=      5-min Rain = 0
KMC4 031606Z 15012KT 31/20 A3005 RMK A01 T03050195  RH  052%=      5-min Rain = 0
KMC4 031607Z 15010KT 31/20 A3006 RMK A01 T03070198  RH  052%=      5-min Rain = 0
KMC4 031608Z 13012KT 31/20 A3006 RMK A01 T03070198  RH  052%=      5-min Rain = 0
KMC4 031609Z 13012KT 31/20 A3006 RMK A01 T03080197  RH  052%=      5-min Rain = 0
KMC4 031610Z 13011KT 31/20 A3006 RMK A01 T03080197  RH  052%=      5-min Rain = 0
KMC4 031611Z 13013KT 31/20 A3006 RMK A01 T03060197  RH  052%=      5-min Rain = 0
KMC4 031612Z 14011KT 31/20 A3006 RMK A01 T03050198  RH  053%=      5-min Rain = 0
KMC4 031613Z 14012KT 31/20 A3006 RMK A01 T03050200  RH  053%=      5-min Rain = 0
KMC4 031614Z 15011KT 31/20 A3006 RMK A01 T03070199  RH  053%=      5-min Rain = 0
KMC4 031615Z 15012KT 31/20 A3005 RMK A01 T03080199  RH  052%=      5-min Rain = 0
KMC4 031616Z 13010KT 31/20 A3006 RMK A01 T03080200  RH  052%=      5-min Rain = 0
KMC4 031617Z 11008KT 31/20 A3005 RMK A01 T03070199  RH  053%=      5-min Rain = 0
KMC4 031618Z 10008KT 31/20 A3005 RMK A01 T03050199  RH  053%=      5-min Rain = 0
KMC4 031619Z 14006KT 31/20 A3005 RMK A01 T03050200  RH  053%=      5-min Rain = 0
KMC4 031620Z 15011KT 31/20 A3005 RMK A01 T03070199  RH  052%=      5-min Rain = 0
KMC4 031621Z 15013KT 31/20 A3005 RMK A01 T03090196  RH  051%=      5-min Rain = 0
KMC4 031622Z 14013KT 31/20 A3005 RMK A01 T03100195  RH  050%=      5-min Rain = 0
KMC4 031623Z 14011KT 31/20 A3005 RMK A01 T03120195  RH  050%=      5-min Rain = 0
KMC4 031624Z 14010KT 31/20 A3005 RMK A01 T03120195  RH  050%=      5-min Rain = 0
KMC4 031625Z 13009KT 31/20 A3005 RMK A01 T03110196  RH  050%=      5-min Rain = 0
KMC4 031626Z 14008KT 31/20 A3005 RMK A01 T03090196  RH  051%=      5-min Rain = 0
KMC4 031627Z 14011KT 31/20 A3005 RMK A01 T03080197  RH  052%=      5-min Rain = 0
KMC4 031628Z 15013KT 31/20 A3005 RMK A01 T03110198  RH  051%=      5-min Rain = 0
KMC4 031629Z 16009KT 31/20 A3005 RMK A01 T03120197  RH  050%=      5-min Rain = 0
KMC4 031630Z 17004KT 31/20 A3005 RMK A01 T03100196  RH  051%=      5-min Rain = 0
KMC4 031631Z 14009G14KT 31/20 A3005 RMK A01 T03100198  RH  051%=      5-min Rain = 0
KMC4 031632Z 14010KT 31/20 A3005 RMK A01 T03120195  RH  050%=      5-min Rain = 0
KMC4 031633Z 13006KT 31/20 A3005 RMK A01 T03120196  RH  050%=      5-min Rain = 0
KMC4 031634Z 12007KT 31/20 A3005 RMK A01 T03110196  RH  051%=      5-min Rain = 0
KMC4 031635Z 12008KT 31/20 A3005 RMK A01 T03110199  RH  051%=      5-min Rain = 0
KMC4 031636Z 13009KT 31/20 A3005 RMK A01 T03130197  RH  050%=      5-min Rain = 0
KMC4 031637Z 14012KT 31/20 A3005 RMK A01 T03130198  RH  050%=      5-min Rain = 0
KMC4 031638Z 17012KT 31/20 A3005 RMK A01 T03130198  RH  051%=      5-min Rain = 0
KMC4 031639Z 18010KT 31/20 A3005 RMK A01 T03130196  RH  050%=      5-min Rain = 0
KMC4 031640Z 16009KT 31/19 A3005 RMK A01 T03120194  RH  049%=      5-min Rain = 0
KMC4 031641Z 13013KT 31/20 A3005 RMK A01 T03140196  RH  049%=      5-min Rain = 0
KMC4 031642Z 12011KT 32/20 A3005 RMK A01 T03160197  RH  049%=      5-min Rain = 0
KMC4 031643Z 14010KT 31/20 A3005 RMK A01 T03140198  RH  050%=      5-min Rain = 0
KMC4 031644Z 16012KT 32/20 A3005 RMK A01 T03160198  RH  050%=      5-min Rain = 0
KMC4 031645Z 15013KT 32/20 A3005 RMK A01 T03170197  RH  049%=      5-min Rain = 0
KMC4 031646Z 14012KT 32/20 A3005 RMK A01 T03170196  RH  049%=      5-min Rain = 0
KMC4 031647Z 13009KT 32/20 A3005 RMK A01 T03150195  RH  049%=      5-min Rain = 0
KMC4 031648Z 14012KT 32/20 A3005 RMK A01 T03150195  RH  049%=      5-min Rain = 0
KMC4 031649Z 13011KT 32/19 A3005 RMK A01 T03150194  RH  049%=      5-min Rain = 0
KMC4 031650Z 13009KT 32/20 A3005 RMK A01 T03160195  RH  049%=      5-min Rain = 0
KMC4 031651Z 12009KT 32/20 A3005 RMK A01 T03170196  RH  049%=      5-min Rain = 0
KMC4 031652Z 12005KT 32/20 A3005 RMK A01 T03180196  RH  049%=      5-min Rain = 0
KMC4 031653Z 14009G15KT 32/20 A3005 RMK A01 T03180198  RH  049%=      5-min Rain = 0
KMC4 031654Z 14014KT 32/20 A3005 RMK A01 T03200197  RH  048%=      5-min Rain = 0
KMC4 031655Z 15011KT 32/20 A3005 RMK A01 T03200195  RH  048%=      5-min Rain = 0
KMC4 031656Z 17009KT 32/20 A3005 RMK A01 T03190196  RH  048%=      5-min Rain = 0
KMC4 031657Z 15006KT 32/20 A3005 RMK A01 T03170195  RH  049%=      5-min Rain = 0
KMC4 031658Z 15011KT 32/20 A3005 RMK A01 T03160195  RH  049%=      5-min Rain = 0
KMC4 031659Z 14012KT 32/20 A3005 RMK A01 T03190195  RH  048%=      5-min Rain = 0
KMC4 031700Z 15010KT 32/20 A3005 RMK A01 T03210195  RH  047%=      5-min Rain = 0
KMC4 031701Z 14014KT 32/19 A3005 RMK A01 T03230192  RH  046%=      5-min Rain = 0
KMC4 031702Z 14013KT 33/19 A3005 RMK A01 T03250193  RH  046%=      5-min Rain = 0
KMC4 031703Z 16012KT 32/19 A3005 RMK A01 T03240194  RH  046%=      5-min Rain = 0
KMC4 031704Z 16011KT 32/19 A3005 RMK A01 T03240191  RH  046%=      5-min Rain = 0
KMC4 031705Z 17009KT 32/19 A3005 RMK A01 T03220190  RH  046%=      5-min Rain = 0
KMC4 031706Z 16009KT 32/19 A3005 RMK A01 T03230191  RH  046%=      5-min Rain = 0
KMC4 031707Z 16008KT 32/19 A3005 RMK A01 T03230190  RH  046%=      5-min Rain = 0
KMC4 031708Z 18011KT 32/19 A3005 RMK A01 T03210191  RH  046%=      5-min Rain = 0
KMC4 031709Z 19010KT 32/19 A3005 RMK A01 T03210192  RH  046%=      5-min Rain = 0
KMC4 031710Z 17009G15KT 32/19 A3005 RMK A01 T03210193  RH  047%=      5-min Rain = 0
KMC4 031711Z 13009KT 32/20 A3005 RMK A01 T03220195  RH  047%=      5-min Rain = 0
KMC4 031712Z 14011G21KT 32/20 A3005 RMK A01 T03240196  RH  047%=      5-min Rain = 0
KMC4 031713Z 17012KT 33/19 A3005 RMK A01 T03270194  RH  046%=      5-min Rain = 0
KMC4 031714Z 16010KT 33/19 A3005 RMK A01 T03250194  RH  046%=      5-min Rain = 0
KMC4 031715Z 17009KT 32/19 A3005 RMK A01 T03240191  RH  045%=      5-min Rain = 0
KMC4 031716Z 16010KT 33/19 A3005 RMK A01 T03250191  RH  045%=      5-min Rain = 0
KMC4 031717Z 16011KT 33/19 A3005 RMK A01 T03250192  RH  045%=      5-min Rain = 0
KMC4 031718Z 16009KT 32/19 A3005 RMK A01 T03240192  RH  045%=      5-min Rain = 0
KMC4 031719Z 18009KT 33/19 A3005 RMK A01 T03250191  RH  045%=      5-min Rain = 0
KMC4 031720Z 14008KT 33/19 A3005 RMK A01 T03250192  RH  045%=      5-min Rain = 0
KMC4 031721Z 15009KT 33/19 A3005 RMK A01 T03250192  RH  045%=      5-min Rain = 0
KMC4 031722Z 13009KT 33/19 A3005 RMK A01 T03250191  RH  045%=      5-min Rain = 0
KMC4 031723Z 12010KT 33/19 A3005 RMK A01 T03250191  RH  045%=      5-min Rain = 0
KMC4 031724Z 11010KT 33/19 A3005 RMK A01 T03270192  RH  045%=      5-min Rain = 0
KMC4 031725Z 09006KT 33/19 A3005 RMK A01 T03260191  RH  045%=      5-min Rain = 0
KMC4 031726Z 11005KT 32/19 A3005 RMK A01 T03240191  RH  045%=      5-min Rain = 0
KMC4 031727Z 13011G16KT 32/19 A3004 RMK A01 T03240192  RH  046%=      5-min Rain = 0
KMC4 031728Z 13010KT 33/19 A3005 RMK A01 T03310192  RH  044%=      5-min Rain = 0
KMC4 031729Z 13008KT 33/19 A3005 RMK A01 T03310191  RH  044%=      5-min Rain = 0
KMC4 031730Z 13011KT 33/19 A3004 RMK A01 T03290190  RH  044%=      5-min Rain = 0
KMC4 031731Z 13011KT 33/19 A3004 RMK A01 T03280190  RH  044%=      5-min Rain = 0
KMC4 031732Z 12007KT 33/19 A3004 RMK A01 T03280189  RH  044%=      5-min Rain = 0
KMC4 031733Z 13007KT 33/19 A3004 RMK A01 T03260189  RH  044%=      5-min Rain = 0
KMC4 031734Z 14007KT 33/19 A3004 RMK A01 T03260189  RH  044%=      5-min Rain = 0
KMC4 031735Z 10006KT 33/19 A3004 RMK A01 T03250189  RH  045%=      5-min Rain = 0
KMC4 031736Z 12010KT 33/19 A3004 RMK A01 T03280190  RH  044%=      5-min Rain = 0
KMC4 031737Z 15011KT 33/19 A3004 RMK A01 T03310192  RH  044%=      5-min Rain = 0
KMC4 031738Z 14009G14KT 33/19 A3004 RMK A01 T03340191  RH  043%=      5-min Rain = 0
KMC4 031739Z 15006KT 33/19 A3004 RMK A01 T03340189  RH  042%=      5-min Rain = 0
KMC4 031740Z 11008KT 33/19 A3004 RMK A01 T03320190  RH  043%=      5-min Rain = 0
KMC4 031741Z 12011KT 33/19 A3004 RMK A01 T03330189  RH  043%=      5-min Rain = 0
KMC4 031742Z 15011KT 33/19 A3004 RMK A01 T03340189  RH  042%=      5-min Rain = 0
KMC4 031743Z 16010KT 33/19 A3004 RMK A01 T03330185  RH  042%=      5-min Rain = 0
KMC4 031744Z 17009KT 33/19 A3004 RMK A01 T03320185  RH  042%=      5-min Rain = 0
KMC4 031745Z 18008KT 33/18 A3004 RMK A01 T03320184  RH  042%=      5-min Rain = 0
KMC4 031746Z 14007KT 33/19 A3004 RMK A01 T03330186  RH  042%=      5-min Rain = 0
KMC4 031747Z 13009KT 34/19 A3004 RMK A01 T03360188  RH  042%=      5-min Rain = 0
KMC4 031748Z 13009KT 34/19 A3004 RMK A01 T03370188  RH  042%=      5-min Rain = 0
KMC4 031749Z 12011KT 34/19 A3004 RMK A01 T03390189  RH  041%=      5-min Rain = 0
KMC4 031750Z 11013KT 34/19 A3004 RMK A01 T03420186  RH  040%=      5-min Rain = 0
KMC4 031751Z 10007G12KT 34/19 A3004 RMK A01 T03370185  RH  041%=      5-min Rain = 0
KMC4 031752Z 13012KT 34/19 A3004 RMK A01 T03360185  RH  041%=      5-min Rain = 0
KMC4 031753Z 12011KT 34/18 A3004 RMK A01 T03400183  RH  039%=      5-min Rain = 0
KMC4 031754Z 11010KT 34/18 A3004 RMK A01 T03400181  RH  039%=      5-min Rain = 0
KMC4 031755Z 10007KT 34/18 A3004 RMK A01 T03360180  RH  040%=      5-min Rain = 0
KMC4 031756Z 10009KT 33/18 A3004 RMK A01 T03340182  RH  041%=      5-min Rain = 0
KMC4 031757Z 09009KT 34/18 A3003 RMK A01 T03350182  RH  040%=      5-min Rain = 0
KMC4 031758Z 08008KT 34/18 A3003 RMK A01 T03360182  RH  040%=      5-min Rain = 0
KMC4 031759Z 08008KT 34/18 A3003 RMK A01 T03360180  RH  040%=      5-min Rain = 0
KMC4 031800Z 11008KT 34/18 A3003 RMK A01 T03350182  RH  040%=      5-min Rain = 0
KMC4 031801Z 13008KT 34/19 A3003 RMK A01 T03350185  RH  041%=      5-min Rain = 0
KMC4 031802Z 10008KT 34/19 A3003 RMK A01 T03360185  RH  041%=      5-min Rain = 0
KMC4 031803Z 08008KT 34/19 A3003 RMK A01 T03370185  RH  041%=      5-min Rain = 0
KMC4 031804Z 14012KT 34/19 A3003 RMK A01 T03420187  RH  040%=      5-min Rain = 0
KMC4 031805Z 16010KT 35/19 A3003 RMK A01 T03470186  RH  039%=      5-min Rain = 0
KMC4 031806Z 15011G18KT 35/19 A3003 RMK A01 T03480185  RH  038%=      5-min Rain = 0
KMC4 031807Z 16007KT 35/18 A3003 RMK A01 T03470183  RH  038%=      5-min Rain = 0
KMC4 031808Z 14011KT 35/18 A3003 RMK A01 T03450183  RH  039%=      5-min Rain = 0
KMC4 031809Z 14010KT 34/18 A3003 RMK A01 T03430182  RH  039%=      5-min Rain = 0
KMC4 031810Z 15008KT 34/18 A3003 RMK A01 T03430183  RH  039%=      5-min Rain = 0
KMC4 031811Z 17007KT 34/18 A3003 RMK A01 T03440182  RH  038%=      5-min Rain = 0
KMC4 031812Z 18007KT 34/18 A3003 RMK A01 T03400181  RH  039%=      5-min Rain = 0
KMC4 031813Z 19008KT 34/18 A3003 RMK A01 T03380182  RH  040%=      5-min Rain = 0
KMC4 031814Z 21006KT 34/18 A3003 RMK A01 T03350181  RH  040%=      5-min Rain = 0
KMC4 031815Z 17004KT 33/18 A3003 RMK A01 T03340183  RH  041%=      5-min Rain = 0
KMC4 031816Z 13009KT 34/19 A3003 RMK A01 T03390186  RH  040%=      5-min Rain = 0
KMC4 031817Z 14012KT 35/19 A3003 RMK A01 T03460186  RH  039%=      5-min Rain = 0
KMC4 031818Z 13010KT 35/19 A3003 RMK A01 T03470185  RH  039%=      5-min Rain = 0
KMC4 031819Z 14010KT 35/19 A3003 RMK A01 T03450185  RH  039%=      5-min Rain = 0
KMC4 031820Z 14009KT 34/19 A3003 RMK A01 T03440185  RH  039%=      5-min Rain = 0
KMC4 031821Z 14008KT 34/19 A3003 RMK A01 T03440185  RH  039%=      5-min Rain = 0
KMC4 031822Z 13011KT 35/19 A3003 RMK A01 T03450186  RH  039%=      5-min Rain = 0
KMC4 031823Z 14013KT 35/18 A3003 RMK A01 T03460183  RH  038%=      5-min Rain = 0
KMC4 031824Z 15014KT 35/18 A3003 RMK A01 T03470180  RH  037%=      5-min Rain = 0
KMC4 031825Z 15009KT 35/18 A3003 RMK A01 T03450178  RH  037%=      5-min Rain = 0
KMC4 031826Z 14006KT 34/18 A3003 RMK A01 T03410179  RH  038%=      5-min Rain = 0
KMC4 031827Z 13006KT 34/18 A3003 RMK A01 T03410180  RH  038%=      5-min Rain = 0
KMC4 031828Z 15008KT 34/18 A3003 RMK A01 T03420181  RH  039%=      5-min Rain = 0
KMC4 031829Z 13011KT 34/18 A3003 RMK A01 T03440182  RH  038%=      5-min Rain = 0
KMC4 031830Z 13009KT 35/18 A3003 RMK A01 T03470182  RH  038%=      5-min Rain = 0
KMC4 031831Z 11011KT 35/18 A3003 RMK A01 T03450182  RH  038%=      5-min Rain = 0
KMC4 031832Z 10009KT 35/18 A3003 RMK A01 T03460181  RH  038%=      5-min Rain = 0
KMC4 031833Z 10010KT 35/18 A3002 RMK A01 T03460181  RH  038%=      5-min Rain = 0
KMC4 031834Z 10008KT 35/18 A3003 RMK A01 T03470182  RH  038%=      5-min Rain = 0
KMC4 031835Z 08006KT 35/18 A3002 RMK A01 T03460181  RH  038%=      5-min Rain = 0
KMC4 031836Z 10009KT 34/18 A3002 RMK A01 T03440181  RH  038%=      5-min Rain = 0
KMC4 031837Z 12010KT 35/18 A3003 RMK A01 T03470181  RH  038%=      5-min Rain = 0
KMC4 031838Z 11009KT 35/18 A3002 RMK A01 T03460180  RH  038%=      5-min Rain = 0
KMC4 031839Z 10007KT 34/18 A3002 RMK A01 T03440179  RH  038%=      5-min Rain = 0
KMC4 031840Z 12007KT 34/18 A3002 RMK A01 T03420179  RH  038%=      5-min Rain = 0
KMC4 031841Z 14009KT 34/18 A3002 RMK A01 T03430179  RH  038%=      5-min Rain = 0
KMC4 031842Z 16011KT 35/18 A3002 RMK A01 T03460179  RH  037%=      5-min Rain = 0
KMC4 031843Z 16012KT 35/18 A3002 RMK A01 T03490179  RH  037%=      5-min Rain = 0
KMC4 031844Z 14011KT 35/18 A3002 RMK A01 T03480178  RH  037%=      5-min Rain = 0
KMC4 031845Z 13007KT 35/18 A3002 RMK A01 T03470179  RH  037%=      5-min Rain = 0
KMC4 031846Z 12005KT 35/18 A3002 RMK A01 T03470178  RH  037%=      5-min Rain = 0
KMC4 031847Z 13007KT 35/18 A3002 RMK A01 T03470178  RH  037%=      5-min Rain = 0
KMC4 031848Z 14008KT 35/18 A3002 RMK A01 T03480179  RH  037%=      5-min Rain = 0
KMC4 031849Z 14006KT 35/18 A3002 RMK A01 T03500179  RH  036%=      5-min Rain = 0
KMC4 031850Z 12006KT 35/18 A3002 RMK A01 T03520178  RH  036%=      5-min Rain = 0
KMC4 031851Z 13005KT 35/18 A3002 RMK A01 T03510178  RH  036%=      5-min Rain = 0
KMC4 031852Z 13006KT 35/18 A3002 RMK A01 T03510178  RH  036%=      5-min Rain = 0
KMC4 031853Z 12006KT 35/18 A3002 RMK A01 T03510178  RH  036%=      5-min Rain = 0
KMC4 031854Z 15009KT 35/18 A3002 RMK A01 T03500178  RH  036%=      5-min Rain = 0
KMC4 031855Z 18008KT 35/18 A3002 RMK A01 T03510177  RH  036%=      5-min Rain = 0
KMC4 031856Z 15009G14KT 35/18 A3002 RMK A01 T03510178  RH  036%=      5-min Rain = 0
KMC4 031857Z 14012KT 35/18 A3002 RMK A01 T03520178  RH  036%=      5-min Rain = 0
KMC4 031858Z 12014KT 36/18 A3002 RMK A01 T03560178  RH  035%=      5-min Rain = 0
KMC4 031859Z 12010KT 36/18 A3002 RMK A01 T03550176  RH  035%=      5-min Rain = 0
KMC4 031900Z 15007KT 35/18 A3002 RMK A01 T03530177  RH  035%=      5-min Rain = 0
KMC4 031901Z 16009KT 35/18 A3002 RMK A01 T03530178  RH  036%=      5-min Rain = 0
KMC4 031902Z 14009KT 35/18 A3002 RMK A01 T03530179  RH  036%=      5-min Rain = 0
KMC4 031903Z 15010KT 36/18 A3001 RMK A01 T03560178  RH  035%=      5-min Rain = 0
KMC4 031904Z 17010KT 35/17 A3001 RMK A01 T03530174  RH  035%=      5-min Rain = 0
KMC4 031905Z 17008KT 35/17 A3001 RMK A01 T03500173  RH  035%=      5-min Rain = 0
KMC4 031906Z 18009KT 35/17 A3001 RMK A01 T03530174  RH  035%=      5-min Rain = 0
KMC4 031907Z 15009KT 36/17 A3001 RMK A01 T03550174  RH  034%=      5-min Rain = 0
KMC4 031908Z 11008KT 36/17 A3001 RMK A01 T03570174  RH  034%=      5-min Rain = 0
KMC4 031909Z 11006KT 36/17 A3001 RMK A01 T03550173  RH  034%=      5-min Rain = 0
KMC4 031910Z 16011KT 36/17 A3001 RMK A01 T03550174  RH  034%=      5-min Rain = 0
KMC4 031911Z 14013KT 36/17 A3001 RMK A01 T03570173  RH  034%=      5-min Rain = 0
KMC4 031912Z 14008KT 35/17 A3001 RMK A01 T03530172  RH  034%=      5-min Rain = 0
KMC4 031913Z 16011KT 35/17 A3001 RMK A01 T03530174  RH  035%=      5-min Rain = 0
KMC4 031914Z 16011KT 36/18 A3001 RMK A01 T03550175  RH  035%=      5-min Rain = 0
KMC4 031915Z 16012KT 35/17 A3001 RMK A01 T03530174  RH  035%=      5-min Rain = 0
KMC4 031916Z 16009KT 35/18 A3001 RMK A01 T03530175  RH  035%=      5-min Rain = 0
KMC4 031917Z 14009KT 36/18 A3001 RMK A01 T03560175  RH  034%=      5-min Rain = 0
KMC4 031918Z 16008KT 35/18 A3001 RMK A01 T03540175  RH  035%=      5-min Rain = 0
KMC4 031919Z 18007KT 35/17 A3001 RMK A01 T03540174  RH  035%=      5-min Rain = 0
KMC4 031920Z 14004G9KT 35/17 A3001 RMK A01 T03540173  RH  034%=      5-min Rain = 0
KMC4 031921Z 17012KT 35/18 A30 RMK A01 T03520176  RH  035%=      5-min Rain = 0
KMC4 031922Z 17012KT 35/18 A30 RMK A01 T03530177  RH  036%=      5-min Rain = 0
KMC4 031923Z 16009KT 35/18 A30 RMK A01 T03530177  RH  035%=      5-min Rain = 0
KMC4 031924Z 14009KT 36/18 A30 RMK A01 T03550178  RH  035%=      5-min Rain = 0
KMC4 031925Z 15010KT 36/18 A30 RMK A01 T03590178  RH  034%=      5-min Rain = 0
KMC4 031926Z 17010KT 36/18 A30 RMK A01 T03610178  RH  034%=      5-min Rain = 0
KMC4 031927Z 16010KT 36/18 A30 RMK A01 T03610177  RH  034%=      5-min Rain = 0
KMC4 031928Z 13011KT 36/18 A30 RMK A01 T03600176  RH  034%=      5-min Rain = 0
KMC4 031929Z 14013KT 36/18 A30 RMK A01 T03580175  RH  034%=      5-min Rain = 0
KMC4 031930Z 14013KT 36/18 A30 RMK A01 T03580176  RH  034%=      5-min Rain = 0
KMC4 031931Z 11010KT 36/18 A30 RMK A01 T03590175  RH  034%=      5-min Rain = 0
KMC4 031932Z 15010KT 36/17 A30 RMK A01 T03580173  RH  034%=      5-min Rain = 0
KMC4 031933Z 13012KT 36/17 A30 RMK A01 T03580173  RH  033%=      5-min Rain = 0
KMC4 031934Z 12013G18KT 36/17 A30 RMK A01 T03580173  RH  034%=      5-min Rain = 0
KMC4 031935Z 12014KT 36/18 A30 RMK A01 T03580175  RH  034%=      5-min Rain = 0
KMC4 031936Z 11011KT 36/17 A30 RMK A01 T03570174  RH  034%=      5-min Rain = 0
KMC4 031937Z 11013KT 36/17 A30 RMK A01 T03570174  RH  034%=      5-min Rain = 0
KMC4 031938Z 11013KT 36/17 A30 RMK A01 T03560173  RH  034%=      5-min Rain = 0
KMC4 031939Z 12011KT 36/17 A30 RMK A01 T03570172  RH  034%=      5-min Rain = 0
KMC4 031940Z 15012KT 36/17 A30 RMK A01 T03590174  RH  034%=      5-min Rain = 0
KMC4 031941Z 15011KT 36/17 A30 RMK A01 T03590173  RH  033%=      5-min Rain = 0
KMC4 031942Z 15011KT 36/17 A30 RMK A01 T03560173  RH  034%=      5-min Rain = 0
KMC4 031943Z 17007KT 36/17 A30 RMK A01 T03580173  RH  034%=      5-min Rain = 0
KMC4 031944Z 17007KT 36/17 A30 RMK A01 T03590173  RH  033%=      5-min Rain = 0
KMC4 031945Z 16013KT 36/17 A2999 RMK A01 T03580172  RH  033%=      5-min Rain = 0
KMC4 031946Z 16013KT 36/17 A30 RMK A01 T03570171  RH  033%=      5-min Rain = 0
KMC4 031947Z 17012KT 36/17 A30 RMK A01 T03580173  RH  034%=      5-min Rain = 0
KMC4 031948Z 17011KT 36/17 A30 RMK A01 T03590174  RH  034%=      5-min Rain = 0
KMC4 031949Z 17009KT 36/17 A2999 RMK A01 T03560174  RH  034%=      5-min Rain = 0
KMC4 031950Z 16007KT 36/17 A2999 RMK A01 T03550174  RH  034%=      5-min Rain = 0
KMC4 031951Z 15011KT 36/18 A2999 RMK A01 T03580175  RH  034%=      5-min Rain = 0
KMC4 031952Z 17010KT 36/17 A2999 RMK A01 T03570174  RH  034%=      5-min Rain = 0
KMC4 031953Z 12010KT 36/17 A30 RMK A01 T03570173  RH  034%=      5-min Rain = 0
KMC4 031954Z 11008KT 36/17 A2999 RMK A01 T03560171  RH  033%=      5-min Rain = 0
KMC4 031955Z 10007KT 36/17 A2999 RMK A01 T03590172  RH  033%=      5-min Rain = 0
KMC4 031956Z 11004KT 36/17 A2999 RMK A01 T03580168  RH  033%=      5-min Rain = 0
KMC4 031957Z 12007KT 36/17 A2999 RMK A01 T03550169  RH  033%=      5-min Rain = 0
KMC4 031958Z 11008G13KT 36/17 A2999 RMK A01 T03580172  RH  033%=      5-min Rain = 0
KMC4 031959Z 12012KT 36/17 A2999 RMK A01 T03620170  RH  032%=      5-min Rain = 0
KMC4 032000Z 13014KT 36/17 A2999 RMK A01 T03620168  RH  032%=      5-min Rain = 0
KMC4 032001Z 13011KT 36/17 A2999 RMK A01 T03600165  RH  032%=      5-min Rain = 0
KMC4 032002Z 13008KT 36/16 A2999 RMK A01 T03580164  RH  032%=      5-min Rain = 0
KMC4 032003Z 12011KT 36/17 A2999 RMK A01 T03600165  RH  032%=      5-min Rain = 0
KMC4 032004Z 12008G13KT 36/16 A2999 RMK A01 T03590161  RH  031%=      5-min Rain = 0
KMC4 032005Z 14006KT 36/16 A2999 RMK A01 T03550160  RH  031%=      5-min Rain = 0
KMC4 032006Z 13007KT 36/16 A2999 RMK A01 T03550163  RH  032%=      5-min Rain = 0
KMC4 032007Z 14010KT 36/17 A2999 RMK A01 T03560165  RH  032%=      5-min Rain = 0
KMC4 032008Z 09011G16KT 36/17 A2999 RMK A01 T03590166  RH  032%=      5-min Rain = 0
KMC4 032009Z 08008KT 36/17 A2998 RMK A01 T03580166  RH  032%=      5-min Rain = 0
KMC4 032010Z 11009KT 36/17 A2999 RMK A01 T03560165  RH  032%=      5-min Rain = 0
KMC4 032011Z 15010KT 36/17 A2999 RMK A01 T03560166  RH  032%=      5-min Rain = 0
KMC4 032012Z 17011KT 36/17 A2999 RMK A01 T03600168  RH  032%=      5-min Rain = 0
KMC4 032013Z 18012KT 36/17 A2998 RMK A01 T03620169  RH  032%=      5-min Rain = 0
KMC4 032014Z 18010KT 36/17 A2998 RMK A01 T03620169  RH  032%=      5-min Rain = 0
KMC4 032015Z 19010KT 36/17 A2998 RMK A01 T03610168  RH  032%=      5-min Rain = 0
KMC4 032016Z 16006KT 36/17 A2998 RMK A01 T03580165  RH  032%=      5-min Rain = 0
KMC4 032017Z 17007KT 36/16 A2998 RMK A01 T03570164  RH  032%=      5-min Rain = 0
KMC4 032018Z 17004KT 36/16 A2998 RMK A01 T03570163  RH  032%=      5-min Rain = 0
KMC4 032019Z 14011G17KT 36/16 A2998 RMK A01 T03570164  RH  032%=      5-min Rain = 0
KMC4 032020Z 15012KT 36/16 A2998 RMK A01 T03620164  RH  031%=      5-min Rain = 0
KMC4 032021Z 12010KT 36/17 A2998 RMK A01 T03630165  RH  031%=      5-min Rain = 0
KMC4 032022Z 11010KT 36/17 A2998 RMK A01 T03610165  RH  031%=      5-min Rain = 0
KMC4 032023Z 10011KT 36/17 A2998 RMK A01 T03630165  RH  031%=      5-min Rain = 0
KMC4 032024Z 11009KT 36/17 A2998 RMK A01 T03610165  RH  031%=      5-min Rain = 0
KMC4 032025Z 12008KT 36/17 A2998 RMK A01 T03600167  RH  032%=      5-min Rain = 0
KMC4 032026Z 11010KT 36/17 A2998 RMK A01 T03620167  RH  031%=      5-min Rain = 0
KMC4 032027Z 11011KT 37/17 A2998 RMK A01 T03650166  RH  031%=      5-min Rain = 0
KMC4 032028Z 15010KT 37/17 A2998 RMK A01 T03650167  RH  031%=      5-min Rain = 0
KMC4 032029Z 16010KT 37/17 A2998 RMK A01 T03660167  RH  031%=      5-min Rain = 0
KMC4 032030Z 15011KT 36/17 A2998 RMK A01 T03640166  RH  031%=      5-min Rain = 0
KMC4 032031Z 18009G14KT 37/17 A2998 RMK A01 T03650165  RH  031%=      5-min Rain = 0
KMC4 032032Z 18005KT 37/16 A2998 RMK A01 T03650164  RH  030%=      5-min Rain = 0
KMC4 032033Z 19007KT 36/16 A2998 RMK A01 T03640164  RH  031%=      5-min Rain = 0
KMC4 032034Z 18011KT 37/17 A2998 RMK A01 T03650165  RH  031%=      5-min Rain = 0
KMC4 032035Z 17008KT 37/16 A2998 RMK A01 T03660164  RH  030%=      5-min Rain = 0
KMC4 032036Z 14014KT 37/16 A2998 RMK A01 T03650163  RH  030%=      5-min Rain = 0
KMC4 032037Z 15014KT 37/16 A2998 RMK A01 T03650164  RH  031%=      5-min Rain = 0
KMC4 032038Z 15012KT 37/16 A2998 RMK A01 T03660163  RH  030%=      5-min Rain = 0
KMC4 032039Z 13008KT 37/16 A2998 RMK A01 T03660164  RH  030%=      5-min Rain = 0
KMC4 032040Z 15005KT 36/16 A2998 RMK A01 T03630163  RH  031%=      5-min Rain = 0
KMC4 032041Z 16009KT 36/17 A2998 RMK A01 T03640165  RH  031%=      5-min Rain = 0
KMC4 032042Z 16010KT 37/16 A2998 RMK A01 T03670162  RH  030%=      5-min Rain = 0
KMC4 032043Z 15010KT 37/16 A2998 RMK A01 T03680162  RH  030%=      5-min Rain = 0
KMC4 032044Z 18009KT 37/16 A2998 RMK A01 T03670162  RH  030%=      5-min Rain = 0
KMC4 032045Z 18011KT 37/17 A2998 RMK A01 T03670165  RH  030%=      5-min Rain = 0
KMC4 032046Z 17008KT 37/16 A2998 RMK A01 T03670164  RH  030%=      5-min Rain = 0
KMC4 032047Z 16005KT 36/16 A2997 RMK A01 T03610164  RH  031%=      5-min Rain = 0
KMC4 032048Z 13008KT 36/17 A2998 RMK A01 T03610165  RH  031%=      5-min Rain = 0
KMC4 032049Z 11008G14KT 37/16 A2998 RMK A01 T03650162  RH  030%=      5-min Rain = 0
KMC4 032050Z 13013KT 37/16 A2997 RMK A01 T03650164  RH  030%=      5-min Rain = 0
KMC4 032051Z 13011KT 37/16 A2997 RMK A01 T03650164  RH  031%=      5-min Rain = 0
KMC4 032052Z 12010KT 36/16 A2997 RMK A01 T03620163  RH  031%=      5-min Rain = 0
KMC4 032053Z 13008KT 36/16 A2997 RMK A01 T03640164  RH  031%=      5-min Rain = 0
KMC4 032054Z 13010KT 37/16 A2997 RMK A01 T03650164  RH  030%=      5-min Rain = 0
KMC4 032055Z 14014KT 37/16 A2997 RMK A01 T03660163  RH  030%=      5-min Rain = 0
KMC4 032056Z 13012KT 37/16 A2997 RMK A01 T03690162  RH  030%=      5-min Rain = 0
KMC4 032057Z 13009KT 37/16 A2997 RMK A01 T03670162  RH  030%=      5-min Rain = 0
KMC4 032058Z 13012KT 37/16 A2997 RMK A01 T03670161  RH  030%=      5-min Rain = 0
KMC4 032059Z 15007KT 37/16 A2997 RMK A01 T03670163  RH  030%=      5-min Rain = 0
KMC4 032100Z 15007KT 37/16 A2997 RMK A01 T03680164  RH  030%=      5-min Rain = 0
KMC4 032101Z 14010G16KT 37/16 A2997 RMK A01 T03700164  RH  030%=      5-min Rain = 0
KMC4 032102Z 14014KT 37/16 A2997 RMK A01 T03700163  RH  030%=      5-min Rain = 0
KMC4 032103Z 15014G19KT 37/16 A2997 RMK A01 T03690162  RH  029%=      5-min Rain = 0
KMC4 032104Z 14011KT 37/16 A2997 RMK A01 T03690161  RH  029%=      5-min Rain = 0
KMC4 032105Z 15010KT 37/16 A2997 RMK A01 T03670160  RH  029%=      5-min Rain = 0
KMC4 032106Z 16010KT 37/16 A2997 RMK A01 T03670158  RH  029%=      5-min Rain = 0
KMC4 032107Z 17010KT 37/16 A2997 RMK A01 T03670158  RH  029%=      5-min Rain = 0
KMC4 032108Z 18006KT 37/16 A2997 RMK A01 T03660158  RH  029%=      5-min Rain = 0
KMC4 032109Z 17007G13KT 36/16 A2997 RMK A01 T03630160  RH  030%=      5-min Rain = 0
KMC4 032110Z 16014KT 37/16 A2997 RMK A01 T03650160  RH  030%=      5-min Rain = 0
KMC4 032111Z 14012KT 37/16 A2997 RMK A01 T03690159  RH  029%=      5-min Rain = 0
KMC4 032112Z 13009KT 37/16 A2997 RMK A01 T03700158  RH  029%=      5-min Rain = 0
KMC4 032113Z 13006KT 37/16 A2997 RMK A01 T03700158  RH  029%=      5-min Rain = 0
KMC4 032114Z 14006KT 37/16 A2997 RMK A01 T03680157  RH  029%=      5-min Rain = 0
KMC4 032115Z 14006KT 37/16 A2997 RMK A01 T03670156  RH  029%=      5-min Rain = 0
KMC4 032116Z 15009KT 37/16 A2997 RMK A01 T03660157  RH  029%=      5-min Rain = 0
KMC4 032117Z 14010KT 37/16 A2996 RMK A01 T03700159  RH  029%=      5-min Rain = 0
KMC4 032118Z 13010KT 37/16 A2996 RMK A01 T03710158  RH  028%=      5-min Rain = 0
KMC4 032119Z 14007KT 37/16 A2996 RMK A01 T03690158  RH  029%=      5-min Rain = 0
KMC4 032120Z 16012G17KT 37/16 A2996 RMK A01 T03700161  RH  029%=      5-min Rain = 0
KMC4 032121Z 17011KT 37/16 A2996 RMK A01 T03700160  RH  029%=      5-min Rain = 0
KMC4 032122Z 18008G13KT 37/16 A2996 RMK A01 T03670158  RH  029%=      5-min Rain = 0
KMC4 032123Z 16013KT 37/16 A2996 RMK A01 T03660157  RH  029%=      5-min Rain = 0
KMC4 032124Z 14013KT 37/15 A2996 RMK A01 T03700153  RH  028%=      5-min Rain = 0
KMC4 032125Z 14013KT 37/15 A2996 RMK A01 T03720152  RH  027%=      5-min Rain = 0
KMC4 032126Z 15014KT 37/16 A2996 RMK A01 T03740157  RH  028%=      5-min Rain = 0
KMC4 032127Z 15014KT 37/16 A2996 RMK A01 T03730156  RH  028%=      5-min Rain = 0
KMC4 032128Z 12013KT 37/16 A2996 RMK A01 T03740155  RH  027%=      5-min Rain = 0
KMC4 032129Z 14008KT 37/15 A2996 RMK A01 T03740152  RH  027%=      5-min Rain = 0
KMC4 032130Z 16011KT 37/15 A2996 RMK A01 T03720154  RH  028%=      5-min Rain = 0
KMC4 032131Z 14011KT 37/16 A2996 RMK A01 T03740155  RH  027%=      5-min Rain = 0
KMC4 032132Z 13008KT 37/15 A2996 RMK A01 T03720150  RH  027%=      5-min Rain = 0
KMC4 032133Z 14006KT 37/15 A2996 RMK A01 T03670150  RH  028%=      5-min Rain = 0
KMC4 032134Z 15009KT 37/15 A2996 RMK A01 T03660151  RH  028%=      5-min Rain = 0
KMC4 032135Z 13011G16KT 37/15 A2996 RMK A01 T03680151  RH  028%=      5-min Rain = 0
KMC4 032136Z 14012KT 37/15 A2996 RMK A01 T03710147  RH  026%=      5-min Rain = 0
KMC4 032137Z 13010KT 37/15 A2996 RMK A01 T03720146  RH  026%=      5-min Rain = 0
KMC4 032138Z 14011KT 37/15 A2996 RMK A01 T03720146  RH  026%=      5-min Rain = 0
KMC4 032139Z 14013KT 37/15 A2996 RMK A01 T03710149  RH  027%=      5-min Rain = 0
KMC4 032140Z 16010KT 37/15 A2996 RMK A01 T03740150  RH  027%=      5-min Rain = 0
KMC4 032141Z 17008KT 37/15 A2996 RMK A01 T03720149  RH  027%=      5-min Rain = 0
KMC4 032142Z 17008KT 37/15 A2996 RMK A01 T03700149  RH  027%=      5-min Rain = 0
KMC4 032143Z 17006KT 37/15 A2996 RMK A01 T03680147  RH  027%=      5-min Rain = 0
KMC4 032144Z 18005KT 37/15 A2996 RMK A01 T03660146  RH  027%=      5-min Rain = 0
KMC4 032145Z 12011KT 37/15 A2996 RMK A01 T03650148  RH  028%=      5-min Rain = 0
KMC4 032146Z 13012KT 37/15 A2996 RMK A01 T03680150  RH  027%=      5-min Rain = 0
KMC4 032147Z 14010KT 37/16 A2996 RMK A01 T03710156  RH  028%=      5-min Rain = 0
KMC4 032148Z 14010KT 37/16 A2996 RMK A01 T03730158  RH  028%=      5-min Rain = 0
KMC4 032149Z 15009KT 38/16 A2996 RMK A01 T03750157  RH  028%=      5-min Rain = 0
KMC4 032150Z 17010KT 37/16 A2996 RMK A01 T03720156  RH  028%=      5-min Rain = 0
KMC4 032151Z 19010KT 37/16 A2995 RMK A01 T03700156  RH  028%=      5-min Rain = 0
KMC4 032152Z 18008KT 37/15 A2995 RMK A01 T03690154  RH  028%=      5-min Rain = 0
KMC4 032153Z 13008KT 37/15 A2995 RMK A01 T03690152  RH  028%=      5-min Rain = 0
KMC4 032154Z 12009G16KT 37/15 A2995 RMK A01 T03720152  RH  027%=      5-min Rain = 0
KMC4 032155Z 11010KT 38/15 A2995 RMK A01 T03750154  RH  027%=      5-min Rain = 0
KMC4 032156Z 10009KT 37/15 A2995 RMK A01 T03740153  RH  027%=      5-min Rain = 0
KMC4 032157Z 13011KT 37/15 A2995 RMK A01 T03720154  RH  028%=      5-min Rain = 0
KMC4 032158Z 14014KT 37/15 A2995 RMK A01 T03740153  RH  027%=      5-min Rain = 0
KMC4 032159Z 15016KT 37/15 A2995 RMK A01 T03730152  RH  027%=      5-min Rain = 0
KMC4 032200Z 16013KT 37/15 A2995 RMK A01 T03730150  RH  027%=      5-min Rain = 0
KMC4 032201Z 16013KT 37/15 A2995 RMK A01 T03730151  RH  027%=      5-min Rain = 0
KMC4 032202Z 15015KT 38/15 A2995 RMK A01 T03760153  RH  027%=      5-min Rain = 0
KMC4 032203Z 15014KT 38/15 A2995 RMK A01 T03760153  RH  027%=      5-min Rain = 0
KMC4 032204Z 14012KT 38/15 A2995 RMK A01 T03750153  RH  027%=      5-min Rain = 0
KMC4 032205Z 16008KT 37/15 A2995 RMK A01 T03730152  RH  027%=      5-min Rain = 0
KMC4 032206Z 17008KT 37/15 A2995 RMK A01 T03720154  RH  027%=      5-min Rain = 0
KMC4 032207Z 17007KT 37/15 A2995 RMK A01 T03710153  RH  027%=      5-min Rain = 0
KMC4 032208Z 18011KT 37/15 A2995 RMK A01 T03700154  RH  028%=      5-min Rain = 0
KMC4 032209Z 18012KT 37/16 A2995 RMK A01 T03710155  RH  028%=      5-min Rain = 0
KMC4 032210Z 17008KT 37/16 A2995 RMK A01 T03710155  RH  028%=      5-min Rain = 0
KMC4 032211Z 17008KT 37/15 A2995 RMK A01 T03680154  RH  028%=      5-min Rain = 0
KMC4 032212Z 16013KT 37/16 A2995 RMK A01 T03680155  RH  028%=      5-min Rain = 0
KMC4 032213Z 16013KT 37/16 A2995 RMK A01 T03710155  RH  028%=      5-min Rain = 0
KMC4 032214Z 17014KT 37/16 A2995 RMK A01 T03740155  RH  027%=      5-min Rain = 0
KMC4 032215Z 18012KT 37/15 A2995 RMK A01 T03710153  RH  027%=      5-min Rain = 0
KMC4 032216Z 18011KT 37/15 A2995 RMK A01 T03680152  RH  028%=      5-min Rain = 0
KMC4 032217Z 17012KT 37/15 A2995 RMK A01 T03660152  RH  028%=      5-min Rain = 0
KMC4 032218Z 18009G14KT 37/15 A2995 RMK A01 T03650151  RH  028%=      5-min Rain = 0
KMC4 032219Z 16009KT 36/15 A2995 RMK A01 T03640151  RH  028%=      5-min Rain = 0
KMC4 032220Z 15010KT 37/15 A2995 RMK A01 T03680152  RH  028%=      5-min Rain = 0
KMC4 032221Z 15008KT 37/15 A2995 RMK A01 T03690151  RH  027%=      5-min Rain = 0
KMC4 032222Z 15011KT 37/15 A2995 RMK A01 T03700151  RH  027%=      5-min Rain = 0
KMC4 032223Z 16011KT 37/15 A2995 RMK A01 T03700149  RH  027%=      5-min Rain = 0
KMC4 032224Z 15012KT 37/15 A2995 RMK A01 T03700148  RH  027%=      5-min Rain = 0
KMC4 032225Z 15015KT 37/15 A2995 RMK A01 T03720147  RH  026%=      5-min Rain = 0
KMC4 032226Z 13012KT 37/15 A2995 RMK A01 T03720145  RH  026%=      5-min Rain = 0
KMC4 032227Z 14014KT 37/15 A2995 RMK A01 T03720145  RH  026%=      5-min Rain = 0
KMC4 032228Z 14015KT 37/15 A2995 RMK A01 T03720145  RH  026%=      5-min Rain = 0
KMC4 032229Z 14012KT 37/14 A2995 RMK A01 T03720144  RH  026%=      5-min Rain = 0
KMC4 032230Z 16014G21KT 37/15 A2995 RMK A01 T03720145  RH  026%=      5-min Rain = 0
KMC4 032231Z 15015KT 37/15 A2995 RMK A01 T03720146  RH  026%=      5-min Rain = 0
KMC4 032232Z 12012KT 37/15 A2995 RMK A01 T03720148  RH  026%=      5-min Rain = 0
KMC4 032233Z 13015G20KT 38/15 A2995 RMK A01 T03750148  RH  026%=      5-min Rain = 0
KMC4 032234Z 12013KT 37/15 A2995 RMK A01 T03740147  RH  026%=      5-min Rain = 0
KMC4 032235Z 12009KT 37/15 A2995 RMK A01 T03690145  RH  026%=      5-min Rain = 0
KMC4 032236Z 12006KT 37/15 A2995 RMK A01 T03660145  RH  027%=      5-min Rain = 0
KMC4 032237Z 13007KT 37/15 A2995 RMK A01 T03660146  RH  027%=      5-min Rain = 0
KMC4 032238Z 13012G17KT 37/15 A2995 RMK A01 T03710148  RH  027%=      5-min Rain = 0
KMC4 032239Z 13013KT 37/15 A2995 RMK A01 T03740145  RH  026%=      5-min Rain = 0
KMC4 032240Z 11012KT 38/14 A2995 RMK A01 T03750144  RH  025%=      5-min Rain = 0
KMC4 032241Z 13013KT 38/14 A2995 RMK A01 T03750144  RH  026%=      5-min Rain = 0
KMC4 032242Z 16013KT 38/15 A2995 RMK A01 T03750145  RH  026%=      5-min Rain = 0
KMC4 032243Z 17013KT 37/14 A2995 RMK A01 T03740144  RH  026%=      5-min Rain = 0
KMC4 032244Z 17013KT 37/14 A2995 RMK A01 T03740144  RH  026%=      5-min Rain = 0
KMC4 032245Z 17014KT 37/14 A2995 RMK A01 T03720142  RH  025%=      5-min Rain = 0
KMC4 032246Z 13012KT 37/14 A2995 RMK A01 T03710140  RH  025%=      5-min Rain = 0
KMC4 032247Z 12010KT 37/14 A2995 RMK A01 T03690138  RH  025%=      5-min Rain = 0
KMC4 032248Z 13008KT 37/14 A2995 RMK A01 T03670137  RH  025%=      5-min Rain = 0
KMC4 032249Z 12006KT 37/14 A2995 RMK A01 T03710139  RH  025%=      5-min Rain = 0
KMC4 032250Z 12007KT 37/14 A2995 RMK A01 T03740138  RH  025%=      5-min Rain = 0
KMC4 032251Z 16007KT 37/14 A2995 RMK A01 T03710138  RH  025%=      5-min Rain = 0
KMC4 032252Z 15008KT 37/14 A2995 RMK A01 T03710140  RH  025%=      5-min Rain = 0
KMC4 032253Z 16010KT 37/14 A2995 RMK A01 T03710139  RH  025%=      5-min Rain = 0
KMC4 032254Z 16013KT 37/14 A2994 RMK A01 T03720141  RH  025%=      5-min Rain = 0
KMC4 032255Z 17014KT 37/14 A2994 RMK A01 T03740143  RH  025%=      5-min Rain = 0
KMC4 032256Z 17014KT 38/14 A2994 RMK A01 T03750143  RH  025%=      5-min Rain = 0
KMC4 032257Z 17012KT 37/14 A2995 RMK A01 T03720141  RH  025%=      5-min Rain = 0
KMC4 032258Z 15012KT 37/14 A2995 RMK A01 T03700140  RH  025%=      5-min Rain = 0
KMC4 032259Z 15010KT 37/14 A2995 RMK A01 T03690139  RH  025%=      5-min Rain = 0
KMC4 032300Z 14008KT 37/14 A2995 RMK A01 T03680139  RH  026%=      5-min Rain = 0
KMC4 032301Z 13009KT 37/14 A2995 RMK A01 T03710141  RH  025%=      5-min Rain = 0
KMC4 032302Z 14009KT 37/14 A2995 RMK A01 T03720141  RH  025%=      5-min Rain = 0
KMC4 032303Z 13007KT 37/14 A2995 RMK A01 T03710140  RH  025%=      5-min Rain = 0
KMC4 032304Z 15007KT 37/14 A2995 RMK A01 T03730140  RH  025%=      5-min Rain = 0
KMC4 032305Z 14004KT 37/14 A2994 RMK A01 T03720139  RH  025%=      5-min Rain = 0
KMC4 032306Z 13005KT 37/14 A2994 RMK A01 T03700139  RH  025%=      5-min Rain = 0
KMC4 032307Z 12008KT 37/14 A2994 RMK A01 T03720141  RH  025%=      5-min Rain = 0
KMC4 032308Z 12010KT 37/14 A2994 RMK A01 T03740143  RH  025%=      5-min Rain = 0
KMC4 032309Z 14009KT 37/14 A2994 RMK A01 T03730144  RH  026%=      5-min Rain = 0
KMC4 032310Z 14010KT 37/14 A2994 RMK A01 T03740141  RH  025%=      5-min Rain = 0
KMC4 032311Z 16013KT 38/14 A2994 RMK A01 T03750138  RH  024%=      5-min Rain = 0
KMC4 032312Z 16011KT 37/14 A2994 RMK A01 T03720136  RH  024%=      5-min Rain = 0
KMC4 032313Z 17011KT 37/14 A2994 RMK A01 T03710136  RH  025%=      5-min Rain = 0
KMC4 032314Z 18012KT 37/14 A2994 RMK A01 T03700138  RH  025%=      5-min Rain = 0
KMC4 032315Z 18010KT 37/14 A2994 RMK A01 T03690142  RH  026%=      5-min Rain = 0
KMC4 032316Z 14010KT 37/14 A2994 RMK A01 T03670141  RH  026%=      5-min Rain = 0
KMC4 032317Z 14013KT 37/14 A2994 RMK A01 T03690140  RH  026%=      5-min Rain = 0
KMC4 032318Z 14014KT 37/14 A2994 RMK A01 T03690138  RH  025%=      5-min Rain = 0
KMC4 032319Z 14011KT 37/14 A2994 RMK A01 T03700136  RH  025%=      5-min Rain = 0
KMC4 032320Z 12012KT 37/14 A2994 RMK A01 T03700138  RH  025%=      5-min Rain = 0
KMC4 032321Z 13010KT 37/14 A2994 RMK A01 T03700142  RH  026%=      5-min Rain = 0
KMC4 032322Z 15008KT 37/14 A2994 RMK A01 T03700142  RH  026%=      5-min Rain = 0
KMC4 032323Z 14006KT 37/14 A2994 RMK A01 T03680142  RH  026%=      5-min Rain = 0
KMC4 032324Z 15010G15KT 37/14 A2994 RMK A01 T03680143  RH  026%=      5-min Rain = 0
KMC4 032325Z 14010KT 37/14 A2994 RMK A01 T03690143  RH  026%=      5-min Rain = 0
KMC4 032326Z 12012KT 37/14 A2994 RMK A01 T03670144  RH  026%=      5-min Rain = 0
KMC4 032327Z 10011KT 37/14 A2994 RMK A01 T03670143  RH  026%=      5-min Rain = 0
KMC4 032328Z 10009KT 37/14 A2994 RMK A01 T03670142  RH  026%=      5-min Rain = 0
KMC4 032329Z 11010KT 37/14 A2993 RMK A01 T03670142  RH  026%=      5-min Rain = 0
KMC4 032330Z 13013KT 37/14 A2993 RMK A01 T03680142  RH  026%=      5-min Rain = 0
KMC4 032331Z 14012KT 37/14 A2994 RMK A01 T03700142  RH  026%=      5-min Rain = 0
KMC4 032332Z 15011KT 37/14 A2994 RMK A01 T03710142  RH  026%=      5-min Rain = 0
KMC4 032333Z 13011KT 37/14 A2994 RMK A01 T03700141  RH  026%=      5-min Rain = 0
KMC4 032334Z 15009KT 37/14 A2993 RMK A01 T03670141  RH  026%=      5-min Rain = 0
KMC4 032335Z 14008KT 37/14 A2993 RMK A01 T03650140  RH  026%=      5-min Rain = 0
KMC4 032336Z 11011KT 37/14 A2993 RMK A01 T03650140  RH  026%=      5-min Rain = 0
KMC4 032337Z 13009KT 37/14 A2993 RMK A01 T03660140  RH  026%=      5-min Rain = 0
KMC4 032338Z 13008KT 37/14 A2993 RMK A01 T03650140  RH  026%=      5-min Rain = 0
KMC4 032339Z 13010KT 37/14 A2993 RMK A01 T03660140  RH  026%=      5-min Rain = 0
KMC4 032340Z 13012KT 37/14 A2993 RMK A01 T03700141  RH  026%=      5-min Rain = 0
KMC4 032341Z 12012KT 37/14 A2993 RMK A01 T03720139  RH  025%=      5-min Rain = 0
KMC4 032342Z 14010KT 37/14 A2993 RMK A01 T03700138  RH  025%=      5-min Rain = 0
KMC4 032343Z 17009KT 37/14 A2993 RMK A01 T03690138  RH  025%=      5-min Rain = 0
KMC4 032344Z 16010KT 37/14 A2993 RMK A01 T03690138  RH  025%=      5-min Rain = 0
KMC4 032345Z 16008KT 37/14 A2993 RMK A01 T03670138  RH  025%=      5-min Rain = 0
KMC4 032346Z 14008KT 37/14 A2993 RMK A01 T03660138  RH  026%=      5-min Rain = 0
KMC4 032347Z 14009KT 37/14 A2993 RMK A01 T03660139  RH  026%=      5-min Rain = 0
KMC4 032348Z 12012KT 37/14 A2993 RMK A01 T03670139  RH  026%=      5-min Rain = 0
KMC4 032349Z 13013KT 37/14 A2993 RMK A01 T03680139  RH  026%=      5-min Rain = 0
KMC4 032350Z 13012KT 37/14 A2993 RMK A01 T03660138  RH  026%=      5-min Rain = 0
KMC4 032351Z 12012KT 37/14 A2993 RMK A01 T03660137  RH  025%=      5-min Rain = 0
KMC4 032352Z 11010G16KT 37/14 A2993 RMK A01 T03650138  RH  026%=      5-min Rain = 0
KMC4 032353Z 11012KT 37/14 A2993 RMK A01 T03650138  RH  026%=      5-min Rain = 0
KMC4 032354Z 12011KT 36/14 A2993 RMK A01 T03640139  RH  026%=      5-min Rain = 0
KMC4 032355Z 10012KT 36/14 A2993 RMK A01 T03640139  RH  026%=      5-min Rain = 0
KMC4 032356Z 11011KT 36/14 A2993 RMK A01 T03640141  RH  027%=      5-min Rain = 0
KMC4 032357Z 13009KT 36/14 A2993 RMK A01 T03630142  RH  027%=      5-min Rain = 0
KMC4 032358Z 14008KT 36/14 A2993 RMK A01 T03640142  RH  027%=      5-min Rain = 0
KMC4 032359Z 14010KT 37/14 A2993 RMK A01 T03670141  RH  026%=      5-min Rain = 0
KMC4 040000Z 15010KT 37/14 A2993 RMK A01 T03690137  RH  025%=      5-min Rain = 0
KMC4 040001Z 16009KT 37/13 A2993 RMK A01 T03680134  RH  025%=      5-min Rain = 0
KMC4 040002Z 15008KT 37/14 A2993 RMK A01 T03670139  RH  026%=      5-min Rain = 0
KMC4 040003Z 14008KT 37/14 A2993 RMK A01 T03660140  RH  026%=      5-min Rain = 0
KMC4 040004Z 15007KT 37/14 A2993 RMK A01 T03670140  RH  026%=      5-min Rain = 0
KMC4 040005Z 16009KT 37/14 A2993 RMK A01 T03670139  RH  026%=      5-min Rain = 0
KMC4 040006Z 15016KT 37/14 A2993 RMK A01 T03670140  RH  026%=      5-min Rain = 0
KMC4 040007Z 16012KT 37/14 A2993 RMK A01 T03670141  RH  026%=      5-min Rain = 0
KMC4 040008Z 16011KT 37/14 A2993 RMK A01 T03660141  RH  026%=      5-min Rain = 0
KMC4 040009Z 15011KT 37/14 A2993 RMK A01 T03650141  RH  026%=      5-min Rain = 0
KMC4 040010Z 14015KT 37/14 A2993 RMK A01 T03650141  RH  026%=      5-min Rain = 0
KMC4 040011Z 13015KT 37/14 A2993 RMK A01 T03660141  RH  026%=      5-min Rain = 0
KMC4 040012Z 12015KT 37/14 A2993 RMK A01 T03650141  RH  026%=      5-min Rain = 0
KMC4 040013Z 12014KT 36/14 A2993 RMK A01 T03640141  RH  026%=      5-min Rain = 0
KMC4 040014Z 14013KT 36/14 A2993 RMK A01 T03630140  RH  026%=      5-min Rain = 0
KMC4 040015Z 13014KT 36/14 A2993 RMK A01 T03640141  RH  027%=      5-min Rain = 0
KMC4 040016Z 15011KT 36/14 A2993 RMK A01 T03630141  RH  027%=      5-min Rain = 0
KMC4 040017Z 15009KT 36/14 A2993 RMK A01 T03640141  RH  026%=      5-min Rain = 0
KMC4 040018Z 15010KT 37/14 A2993 RMK A01 T03650142  RH  026%=      5-min Rain = 0
KMC4 040019Z 15010KT 37/14 A2993 RMK A01 T03660142  RH  026%=      5-min Rain = 0
KMC4 040020Z 15009KT 37/14 A2993 RMK A01 T03650141  RH  026%=      5-min Rain = 0
KMC4 040021Z 15009KT 36/14 A2993 RMK A01 T03640142  RH  027%=      5-min Rain = 0
KMC4 040022Z 15008KT 36/14 A2993 RMK A01 T03630141  RH  027%=      5-min Rain = 0
KMC4 040023Z 17009KT 36/14 A2993 RMK A01 T03630140  RH  027%=      5-min Rain = 0
KMC4 040024Z 13008KT 36/14 A2993 RMK A01 T03630140  RH  026%=      5-min Rain = 0
KMC4 040025Z 15010KT 36/14 A2993 RMK A01 T03630140  RH  026%=      5-min Rain = 0
KMC4 040026Z 14009KT 36/14 A2994 RMK A01 T03630141  RH  027%=      5-min Rain = 0
KMC4 040027Z 14009KT 36/14 A2994 RMK A01 T03630141  RH  027%=      5-min Rain = 0
KMC4 040028Z 12011G16KT 36/14 A2994 RMK A01 T03640141  RH  027%=      5-min Rain = 0
KMC4 040029Z 13012KT 36/14 A2994 RMK A01 T03640141  RH  026%=      5-min Rain = 0
KMC4 040030Z 13013KT 36/14 A2994 RMK A01 T03630139  RH  026%=      5-min Rain = 0
KMC4 040031Z 13010KT 36/14 A2994 RMK A01 T03610140  RH  027%=      5-min Rain = 0
KMC4 040032Z 13011KT 36/14 A2994 RMK A01 T03630140  RH  026%=      5-min Rain = 0
KMC4 040033Z 12010KT 36/14 A2994 RMK A01 T03640140  RH  026%=      5-min Rain = 0
KMC4 040034Z 12009KT 36/14 A2994 RMK A01 T03630140  RH  026%=      5-min Rain = 0
KMC4 040035Z 12009KT 36/14 A2994 RMK A01 T03620140  RH  027%=      5-min Rain = 0
KMC4 040036Z 11013KT 36/14 A2994 RMK A01 T03620140  RH  027%=      5-min Rain = 0
KMC4 040037Z 11012KT 36/14 A2994 RMK A01 T03610141  RH  027%=      5-min Rain = 0
KMC4 040038Z 12009KT 36/14 A2994 RMK A01 T03600141  RH  027%=      5-min Rain = 0
KMC4 040039Z 14010KT 36/14 A2994 RMK A01 T03610141  RH  027%=      5-min Rain = 0
KMC4 040040Z 16010KT 36/14 A2994 RMK A01 T03610140  RH  027%=      5-min Rain = 0
KMC4 040041Z 18009KT 36/14 A2994 RMK A01 T03610139  RH  027%=      5-min Rain = 0
KMC4 040042Z 17009KT 36/14 A2994 RMK A01 T03600140  RH  027%=      5-min Rain = 0
KMC4 040043Z 13012KT 36/14 A2994 RMK A01 T03590140  RH  027%=      5-min Rain = 0
KMC4 040044Z 13011KT 36/14 A2994 RMK A01 T03590139  RH  027%=      5-min Rain = 0
KMC4 040045Z 13011KT 36/14 A2994 RMK A01 T03590140  RH  027%=      5-min Rain = 0
KMC4 040046Z 13012KT 36/14 A2993 RMK A01 T03580139  RH  027%=      5-min Rain = 0
KMC4 040047Z 15012KT 36/14 A2993 RMK A01 T03580139  RH  027%=      5-min Rain = 0
KMC4 040048Z 15015KT 36/14 A2993 RMK A01 T03580139  RH  027%=      5-min Rain = 0
KMC4 040049Z 15014KT 36/14 A2993 RMK A01 T03580138  RH  027%=      5-min Rain = 0
KMC4 040050Z 15013KT 36/14 A2993 RMK A01 T03570139  RH  027%=      5-min Rain = 0
KMC4 040051Z 16012KT 36/14 A2993 RMK A01 T03570138  RH  027%=      5-min Rain = 0
KMC4 040052Z 15010KT 36/14 A2993 RMK A01 T03570138  RH  027%=      5-min Rain = 0
KMC4 040053Z 15011KT 36/14 A2993 RMK A01 T03560139  RH  027%=      5-min Rain = 0
KMC4 040054Z 15010KT 36/14 A2993 RMK A01 T03560137  RH  027%=      5-min Rain = 0
KMC4 040055Z 14010KT 36/14 A2993 RMK A01 T03560137  RH  027%=      5-min Rain = 0
KMC4 040056Z 14009KT 36/14 A2993 RMK A01 T03560137  RH  027%=      5-min Rain = 0
KMC4 040057Z 14012KT 36/14 A2993 RMK A01 T03570138  RH  027%=      5-min Rain = 0
KMC4 040058Z 14011KT 36/14 A2993 RMK A01 T03570139  RH  027%=      5-min Rain = 0
KMC4 040059Z 12010KT 36/14 A2993 RMK A01 T03560138  RH  027%=      5-min Rain = 0
KMC4 040100Z 12011KT 36/14 A2993 RMK A01 T03560138  RH  027%=      5-min Rain = 0
KMC4 040101Z 13015KT 36/14 A2993 RMK A01 T03550137  RH  027%=      5-min Rain = 0
KMC4 040102Z 14012KT 36/14 A2994 RMK A01 T03560137  RH  027%=      5-min Rain = 0
KMC4 040103Z 14014KT 36/14 A2994 RMK A01 T03560137  RH  027%=      5-min Rain = 0
KMC4 040104Z 14014KT 36/14 A2994 RMK A01 T03550137  RH  027%=      5-min Rain = 0
KMC4 040105Z 14013KT 36/14 A2994 RMK A01 T03550137  RH  027%=      5-min Rain = 0
KMC4 040106Z 13011KT 35/14 A2994 RMK A01 T03540138  RH  027%=      5-min Rain = 0
KMC4 040107Z 13012KT 35/14 A2994 RMK A01 T03540138  RH  027%=      5-min Rain = 0
KMC4 040108Z 14009KT 35/14 A2994 RMK A01 T03530138  RH  028%=      5-min Rain = 0
KMC4 040109Z 14011KT 35/14 A2994 RMK A01 T03530138  RH  028%=      5-min Rain = 0
KMC4 040110Z 14010KT 35/14 A2994 RMK A01 T03530138  RH  028%=      5-min Rain = 0
KMC4 040111Z 14009KT 35/14 A2994 RMK A01 T03520138  RH  028%=      5-min Rain = 0
KMC4 040112Z 15008KT 35/14 A2994 RMK A01 T03530138  RH  028%=      5-min Rain = 0
KMC4 040113Z 14009KT 35/14 A2994 RMK A01 T03520138  RH  028%=      5-min Rain = 0
KMC4 040114Z 15012KT 35/14 A2994 RMK A01 T03520137  RH  027%=      5-min Rain = 0
KMC4 040115Z 14012KT 35/14 A2994 RMK A01 T03520136  RH  027%=      5-min Rain = 0
KMC4 040116Z 14010KT 35/14 A2994 RMK A01 T03520135  RH  027%=      5-min Rain = 0
KMC4 040117Z 12011KT 35/13 A2994 RMK A01 T03520133  RH  027%=      5-min Rain = 0
KMC4 040118Z 13013KT 35/13 A2994 RMK A01 T03510130  RH  026%=      5-min Rain = 0
KMC4 040119Z 12010KT 35/13 A2994 RMK A01 T03510129  RH  026%=      5-min Rain = 0
KMC4 040120Z 12011KT 35/13 A2995 RMK A01 T03510128  RH  026%=      5-min Rain = 0
KMC4 040121Z 13011KT 35/13 A2995 RMK A01 T03510128  RH  026%=      5-min Rain = 0
KMC4 040122Z 14010KT 35/13 A2995 RMK A01 T03500128  RH  026%=      5-min Rain = 0
KMC4 040123Z 14010KT 35/13 A2995 RMK A01 T03500128  RH  026%=      5-min Rain = 0
KMC4 040124Z 14010KT 35/13 A2995 RMK A01 T03500130  RH  027%=      5-min Rain = 0
KMC4 040125Z 14010KT 35/13 A2995 RMK A01 T03490130  RH  027%=      5-min Rain = 0
KMC4 040126Z 14012KT 35/13 A2995 RMK A01 T03490130  RH  027%=      5-min Rain = 0
KMC4 040127Z 14012KT 35/13 A2995 RMK A01 T03490130  RH  027%=      5-min Rain = 0
KMC4 040128Z 14011KT 35/13 A2995 RMK A01 T03490130  RH  027%=      5-min Rain = 0
KMC4 040129Z 14010KT 35/13 A2995 RMK A01 T03480130  RH  027%=      5-min Rain = 0
KMC4 040130Z 14009KT 35/13 A2995 RMK A01 T03480130  RH  027%=      5-min Rain = 0
KMC4 040131Z 14011KT 35/13 A2995 RMK A01 T03480130  RH  027%=      5-min Rain = 0
KMC4 040132Z 14012KT 35/13 A2995 RMK A01 T03480129  RH  027%=      5-min Rain = 0
KMC4 040133Z 15011KT 35/13 A2995 RMK A01 T03480129  RH  027%=      5-min Rain = 0
KMC4 040134Z 14011KT 35/13 A2995 RMK A01 T03480129  RH  027%=      5-min Rain = 0
KMC4 040135Z 14009KT 35/13 A2995 RMK A01 T03470129  RH  027%=      5-min Rain = 0
KMC4 040136Z 13009KT 35/13 A2995 RMK A01 T03470129  RH  027%=      5-min Rain = 0
KMC4 040137Z 13007KT 35/13 A2995 RMK A01 T03460130  RH  027%=      5-min Rain = 0
KMC4 040138Z 13007KT 35/13 A2995 RMK A01 T03460130  RH  027%=      5-min Rain = 0
KMC4 040139Z 13007KT 35/13 A2995 RMK A01 T03460129  RH  027%=      5-min Rain = 0
KMC4 040140Z 13008KT 35/13 A2995 RMK A01 T03450127  RH  027%=      5-min Rain = 0
KMC4 040141Z 14008KT 34/13 A2995 RMK A01 T03440125  RH  027%=      5-min Rain = 0
KMC4 040142Z 13009KT 34/12 A2995 RMK A01 T03440124  RH  026%=      5-min Rain = 0
KMC4 040143Z 13012KT 34/12 A2995 RMK A01 T03440122  RH  026%=      5-min Rain = 0
KMC4 040144Z 13010KT 34/12 A2995 RMK A01 T03440121  RH  026%=      5-min Rain = 0
KMC4 040145Z 14010KT 34/12 A2995 RMK A01 T03440122  RH  026%=      5-min Rain = 0
KMC4 040146Z 14011KT 34/12 A2995 RMK A01 T03440121  RH  026%=      5-min Rain = 0
KMC4 040147Z 14011G16KT 34/12 A2995 RMK A01 T03440121  RH  026%=      5-min Rain = 0
KMC4 040148Z 14013KT 34/12 A2995 RMK A01 T03440122  RH  026%=      5-min Rain = 0
KMC4 040149Z 14012KT 34/12 A2995 RMK A01 T03430123  RH  026%=      5-min Rain = 0
KMC4 040150Z 14012KT 34/12 A2995 RMK A01 T03430123  RH  026%=      5-min Rain = 0
KMC4 040151Z 14010KT 34/12 A2995 RMK A01 T03430123  RH  026%=      5-min Rain = 0
KMC4 040152Z 13009KT 34/12 A2995 RMK A01 T03430124  RH  027%=      5-min Rain = 0
KMC4 040153Z 14011KT 34/12 A2995 RMK A01 T03420123  RH  027%=      5-min Rain = 0
KMC4 040154Z 14011KT 34/12 A2996 RMK A01 T03410123  RH  027%=      5-min Rain = 0
KMC4 040155Z 14010KT 34/12 A2996 RMK A01 T03410122  RH  027%=      5-min Rain = 0
KMC4 040156Z 14010KT 34/12 A2996 RMK A01 T03410122  RH  027%=      5-min Rain = 0
KMC4 040157Z 14009KT 34/12 A2996 RMK A01 T03400122  RH  027%=      5-min Rain = 0
KMC4 040158Z 13010KT 34/12 A2996 RMK A01 T03400122  RH  027%=      5-min Rain = 0
KMC4 040159Z 13009KT 34/12 A2996 RMK A01 T03400122  RH  027%=      5-min Rain = 0
KMC4 040200Z 14011KT 34/12 A2996 RMK A01 T03390122  RH  027%=      5-min Rain = 0
KMC4 040201Z 14012KT 34/12 A2996 RMK A01 T03390121  RH  027%=      5-min Rain = 0
KMC4 040202Z 14010KT 34/12 A2996 RMK A01 T03390121  RH  027%=      5-min Rain = 0
KMC4 040203Z 14010KT 34/12 A2996 RMK A01 T03390121  RH  027%=      5-min Rain = 0
KMC4 040204Z 13010KT 34/12 A2996 RMK A01 T03390121  RH  027%=      5-min Rain = 0
KMC4 040205Z 14008KT 34/12 A2996 RMK A01 T03380121  RH  027%=      5-min Rain = 0
KMC4 040206Z 13009KT 34/12 A2996 RMK A01 T03380120  RH  027%=      5-min Rain = 0
KMC4 040207Z 13009KT 34/12 A2996 RMK A01 T03370120  RH  027%=      5-min Rain = 0
KMC4 040208Z 14008KT 34/12 A2996 RMK A01 T03370120  RH  027%=      5-min Rain = 0
KMC4 040209Z 14007KT 34/12 A2996 RMK A01 T03370120  RH  027%=      5-min Rain = 0
KMC4 040210Z 14008KT 34/12 A2996 RMK A01 T03360120  RH  027%=      5-min Rain = 0
KMC4 040211Z 14008KT 34/12 A2997 RMK A01 T03350120  RH  027%=      5-min Rain = 0
KMC4 040212Z 14009KT 34/12 A2997 RMK A01 T03350119  RH  027%=      5-min Rain = 0
KMC4 040213Z 14010KT 34/12 A2997 RMK A01 T03350118  RH  027%=      5-min Rain = 0
KMC4 040214Z 14009KT 34/12 A2997 RMK A01 T03350118  RH  027%=      5-min Rain = 0
KMC4 040215Z 14008KT 34/12 A2997 RMK A01 T03360118  RH  027%=      5-min Rain = 0
KMC4 040216Z 14008KT 34/12 A2997 RMK A01 T03350118  RH  027%=      5-min Rain = 0
KMC4 040217Z 14008KT 34/12 A2997 RMK A01 T03350117  RH  027%=      5-min Rain = 0
KMC4 040218Z 14008KT 33/12 A2997 RMK A01 T03340117  RH  027%=      5-min Rain = 0
KMC4 040219Z 14007KT 33/12 A2997 RMK A01 T03340117  RH  027%=      5-min Rain = 0
KMC4 040220Z 14007KT 33/12 A2997 RMK A01 T03330116  RH  027%=      5-min Rain = 0
KMC4 040221Z 14008KT 33/12 A2997 RMK A01 T03330116  RH  027%=      5-min Rain = 0
KMC4 040222Z 14008KT 33/12 A2997 RMK A01 T03320116  RH  027%=      5-min Rain = 0
KMC4 040223Z 14007KT 33/12 A2997 RMK A01 T03320116  RH  027%=      5-min Rain = 0
KMC4 040224Z 14007KT 33/12 A2997 RMK A01 T03320116  RH  027%=      5-min Rain = 0
KMC4 040225Z 14007KT 33/12 A2997 RMK A01 T03310116  RH  027%=      5-min Rain = 0
KMC4 040226Z 14007KT 33/12 A2997 RMK A01 T03310115  RH  027%=      5-min Rain = 0
KMC4 040227Z 14007KT 33/12 A2997 RMK A01 T03300116  RH  027%=      5-min Rain = 0
KMC4 040228Z 14006KT 33/12 A2997 RMK A01 T03290116  RH  027%=      5-min Rain = 0
KMC4 040229Z 14006KT 33/12 A2997 RMK A01 T03280115  RH  027%=      5-min Rain = 0
KMC4 040230Z 14006KT 33/12 A2997 RMK A01 T03270115  RH  027%=      5-min Rain = 0
KMC4 040231Z 14006KT 33/12 A2997 RMK A01 T03260115  RH  028%=      5-min Rain = 0
KMC4 040232Z 14006KT 33/12 A2997 RMK A01 T03250115  RH  028%=      5-min Rain = 0
KMC4 040233Z 14006KT 33/12 A2997 RMK A01 T03250115  RH  028%=      5-min Rain = 0
KMC4 040234Z 14005KT 32/12 A2998 RMK A01 T03240115  RH  028%=      5-min Rain = 0
KMC4 040235Z 14006KT 32/11 A2998 RMK A01 T03230114  RH  028%=      5-min Rain = 0
KMC4 040236Z 13006KT 32/11 A2998 RMK A01 T03230114  RH  028%=      5-min Rain = 0
KMC4 040237Z 13006KT 32/11 A2998 RMK A01 T03220114  RH  028%=      5-min Rain = 0
KMC4 040238Z 13005KT 32/11 A2998 RMK A01 T03210114  RH  028%=      5-min Rain = 0
KMC4 040239Z 13005KT 32/11 A2998 RMK A01 T03210114  RH  028%=      5-min Rain = 0
KMC4 040240Z 14005KT 32/11 A2998 RMK A01 T03200113  RH  028%=      5-min Rain = 0
KMC4 040241Z 14005KT 32/11 A2998 RMK A01 T03190113  RH  028%=      5-min Rain = 0
KMC4 040242Z 14005KT 32/11 A2998 RMK A01 T03190113  RH  028%=      5-min Rain = 0
KMC4 040243Z 14004KT 32/11 A2998 RMK A01 T03180114  RH  029%=      5-min Rain = 0
KMC4 040244Z 14004KT 32/11 A2998 RMK A01 T03180114  RH  029%=      5-min Rain = 0
KMC4 040245Z 14005KT 32/11 A2998 RMK A01 T03170114  RH  029%=      5-min Rain = 0
KMC4 040246Z 13005KT 32/11 A2998 RMK A01 T03160114  RH  029%=      5-min Rain = 0
KMC4 040247Z 13005KT 32/11 A2998 RMK A01 T03160113  RH  029%=      5-min Rain = 0
KMC4 040248Z 13005KT 32/11 A2998 RMK A01 T03150113  RH  029%=      5-min Rain = 0
KMC4 040249Z 14005KT 31/11 A2998 RMK A01 T03140113  RH  029%=      5-min Rain = 0
KMC4 040250Z 14005KT 31/11 A2998 RMK A01 T03140113  RH  029%=      5-min Rain = 0
KMC4 040251Z 14005KT 31/11 A2998 RMK A01 T03130113  RH  029%=      5-min Rain = 0
KMC4 040252Z 13005KT 31/11 A2998 RMK A01 T03120113  RH  029%=      5-min Rain = 0
KMC4 040253Z 14005KT 31/11 A2998 RMK A01 T03120113  RH  029%=      5-min Rain = 0
KMC4 040254Z 14005KT 31/11 A2998 RMK A01 T03110113  RH  030%=      5-min Rain = 0
KMC4 040255Z 14005KT 31/11 A2998 RMK A01 T03110113  RH  030%=      5-min Rain = 0
KMC4 040256Z 14005KT 31/11 A2999 RMK A01 T03100113  RH  030%=      5-min Rain = 0
KMC4 040257Z 14005KT 31/11 A2999 RMK A01 T03100113  RH  030%=      5-min Rain = 0
KMC4 040258Z 14005KT 31/11 A2999 RMK A01 T03090113  RH  030%=      5-min Rain = 0
KMC4 040259Z 14005KT 31/11 A2999 RMK A01 T03090113  RH  030%=      5-min Rain = 0
KMC4 040300Z 14005KT 31/11 A2999 RMK A01 T03080113  RH  030%=      5-min Rain = 0
KMC4 040301Z 14005KT 31/11 A2999 RMK A01 T03070113  RH  030%=      5-min Rain = 0
KMC4 040302Z 14006KT 31/11 A2999 RMK A01 T03070114  RH  030%=      5-min Rain = 0
KMC4 040303Z 14006KT 31/11 A2999 RMK A01 T03070113  RH  030%=      5-min Rain = 0
KMC4 040304Z 14006KT 31/11 A2999 RMK A01 T03070113  RH  030%=      5-min Rain = 0
KMC4 040305Z 14006KT 31/11 A2999 RMK A01 T03060113  RH  030%=      5-min Rain = 0
KMC4 040306Z 14006KT 31/11 A2999 RMK A01 T03070113  RH  030%=      5-min Rain = 0
KMC4 040307Z 14007KT 31/11 A2999 RMK A01 T03070113  RH  030%=      5-min Rain = 0
KMC4 040308Z 13007KT 31/11 A2999 RMK A01 T03070114  RH  030%=      5-min Rain = 0
KMC4 040309Z 14007KT 31/11 A2999 RMK A01 T03080114  RH  030%=      5-min Rain = 0
KMC4 040310Z 14007KT 31/11 A2999 RMK A01 T03080114  RH  030%=      5-min Rain = 0
KMC4 040311Z 14007KT 31/11 A2999 RMK A01 T03080114  RH  030%=      5-min Rain = 0
KMC4 040312Z 14008KT 31/11 A2999 RMK A01 T03090114  RH  030%=      5-min Rain = 0
KMC4 040313Z 14008KT 31/12 A2999 RMK A01 T03100115  RH  030%=      5-min Rain = 0
KMC4 040314Z 15007KT 31/11 A2999 RMK A01 T03100114  RH  030%=      5-min Rain = 0
KMC4 040315Z 15007KT 31/11 A2999 RMK A01 T03100114  RH  030%=      5-min Rain = 0
KMC4 040316Z 15006KT 31/11 A2999 RMK A01 T03100114  RH  030%=      5-min Rain = 0
KMC4 040317Z 15007KT 31/11 A2999 RMK A01 T03080114  RH  030%=      5-min Rain = 0
KMC4 040318Z 15007KT 31/11 A2999 RMK A01 T03080114  RH  030%=      5-min Rain = 0
KMC4 040319Z 15007KT 31/11 A2999 RMK A01 T03070114  RH  030%=      5-min Rain = 0
KMC4 040320Z 15006KT 31/11 A2999 RMK A01 T03070114  RH  031%=      5-min Rain = 0
KMC4 040321Z 15006KT 31/11 A30 RMK A01 T03060114  RH  031%=      5-min Rain = 0
KMC4 040322Z 15006KT 31/11 A30 RMK A01 T03060114  RH  031%=      5-min Rain = 0
KMC4 040323Z 15006KT 31/11 A30 RMK A01 T03060114  RH  031%=      5-min Rain = 0
KMC4 040324Z 15005KT 31/12 A30 RMK A01 T03060115  RH  031%=      5-min Rain = 0
KMC4 040325Z 15005KT 30/11 A30 RMK A01 T03040114  RH  031%=      5-min Rain = 0
KMC4 040326Z 15005KT 30/11 A30 RMK A01 T03040114  RH  031%=      5-min Rain = 0
KMC4 040327Z 15005KT 30/11 A30 RMK A01 T03030114  RH  031%=      5-min Rain = 0
KMC4 040328Z 15005KT 30/11 A30 RMK A01 T03030114  RH  031%=      5-min Rain = 0
KMC4 040329Z 15005KT 30/11 A30 RMK A01 T03020114  RH  031%=      5-min Rain = 0
KMC4 040330Z 15005KT 30/11 A30 RMK A01 T03020114  RH  031%=      5-min Rain = 0
KMC4 040331Z 15005KT 30/11 A30 RMK A01 T03010114  RH  032%=      5-min Rain = 0
KMC4 040332Z 15006KT 30/11 A30 RMK A01 T03000114  RH  032%=      5-min Rain = 0
KMC4 040333Z 15005KT 30/11 A30 RMK A01 T02990114  RH  032%=      5-min Rain = 0
KMC4 040334Z 15005KT 30/11 A30 RMK A01 T02990114  RH  032%=      5-min Rain = 0
KMC4 040335Z 15005KT 30/11 A30 RMK A01 T02980114  RH  032%=      5-min Rain = 0
KMC4 040336Z 15005KT 30/12 A30 RMK A01 T02980115  RH  032%=      5-min Rain = 0
KMC4 040337Z 15006KT 30/11 A30 RMK A01 T02970114  RH  032%=      5-min Rain = 0
KMC4 040338Z 15005KT 30/12 A30 RMK A01 T02970115  RH  032%=      5-min Rain = 0
KMC4 040339Z 15005KT 30/11 A3001 RMK A01 T02960114  RH  033%=      5-min Rain = 0
KMC4 040340Z 14005KT 30/12 A3001 RMK A01 T02950115  RH  033%=      5-min Rain = 0
KMC4 040341Z 15005KT 30/11 A3001 RMK A01 T02950114  RH  033%=      5-min Rain = 0
KMC4 040342Z 14006KT 29/12 A3001 RMK A01 T02940115  RH  033%=      5-min Rain = 0
KMC4 040343Z 14006KT 29/12 A3001 RMK A01 T02940115  RH  033%=      5-min Rain = 0
KMC4 040344Z 15006KT 29/12 A3001 RMK A01 T02940115  RH  033%=      5-min Rain = 0
KMC4 040345Z 15005KT 29/12 A3001 RMK A01 T02940116  RH  033%=      5-min Rain = 0
KMC4 040346Z 15005KT 29/12 A3001 RMK A01 T02940116  RH  033%=      5-min Rain = 0
KMC4 040347Z 16005KT 29/12 A3001 RMK A01 T02940116  RH  033%=      5-min Rain = 0
KMC4 040348Z 15005KT 29/12 A3001 RMK A01 T02940116  RH  033%=      5-min Rain = 0
KMC4 040349Z 15005KT 29/12 A3001 RMK A01 T02940116  RH  033%=      5-min Rain = 0
KMC4 040350Z 15005KT 29/12 A3001 RMK A01 T02930116  RH  034%=      5-min Rain = 0
KMC4 040351Z 15005KT 29/12 A3001 RMK A01 T02930117  RH  034%=      5-min Rain = 0
KMC4 040352Z 15005KT 29/12 A3001 RMK A01 T02920116  RH  034%=      5-min Rain = 0
KMC4 040353Z 15005KT 29/12 A3001 RMK A01 T02920116  RH  034%=      5-min Rain = 0
KMC4 040354Z 15004KT 29/12 A3001 RMK A01 T02910117  RH  034%=      5-min Rain = 0
KMC4 040355Z 15004KT 29/12 A3001 RMK A01 T02910116  RH  034%=      5-min Rain = 0
KMC4 040356Z 15004KT 29/12 A3001 RMK A01 T02910117  RH  034%=      5-min Rain = 0
KMC4 040357Z 14004KT 29/12 A3001 RMK A01 T02900116  RH  034%=      5-min Rain = 0
KMC4 040358Z 15004KT 29/12 A3002 RMK A01 T02890117  RH  034%=      5-min Rain = 0
KMC4 040359Z 14005KT 29/12 A3002 RMK A01 T02890116  RH  034%=      5-min Rain = 0
KMC4 040400Z 14004KT 29/12 A3002 RMK A01 T02880117  RH  035%=      5-min Rain = 0
KMC4 040401Z 14004KT 29/12 A3002 RMK A01 T02880117  RH  035%=      5-min Rain = 0
KMC4 040402Z 15004KT 29/12 A3002 RMK A01 T02880117  RH  035%=      5-min Rain = 0
KMC4 040403Z 14004KT 29/12 A3002 RMK A01 T02870116  RH  035%=      5-min Rain = 0
KMC4 040404Z 14004KT 29/12 A3002 RMK A01 T02870117  RH  035%=      5-min Rain = 0
KMC4 040405Z 14004KT 29/12 A3002 RMK A01 T02870117  RH  035%=      5-min Rain = 0
KMC4 040406Z 14004KT 29/12 A3002 RMK A01 T02860117  RH  035%=      5-min Rain = 0
KMC4 040407Z 14004KT 29/12 A3002 RMK A01 T02860117  RH  035%=      5-min Rain = 0
KMC4 040408Z 14004KT 29/12 A3002 RMK A01 T02860117  RH  035%=      5-min Rain = 0
KMC4 040409Z 14004KT 29/12 A3002 RMK A01 T02860117  RH  035%=      5-min Rain = 0
KMC4 040410Z 13004KT 29/12 A3002 RMK A01 T02860117  RH  035%=      5-min Rain = 0
KMC4 040411Z 13004KT 29/12 A3002 RMK A01 T02860117  RH  035%=      5-min Rain = 0
KMC4 040412Z 13004KT 29/12 A3002 RMK A01 T02850117  RH  035%=      5-min Rain = 0
KMC4 040413Z 13004KT 29/12 A3002 RMK A01 T02860117  RH  035%=      5-min Rain = 0
KMC4 040414Z 13004KT 29/12 A3002 RMK A01 T02860118  RH  035%=      5-min Rain = 0
KMC4 040415Z 13005KT 29/12 A3002 RMK A01 T02850117  RH  035%=      5-min Rain = 0
KMC4 040416Z 13005KT 29/12 A3002 RMK A01 T02850118  RH  035%=      5-min Rain = 0
KMC4 040417Z 13004KT 29/12 A3002 RMK A01 T02860118  RH  035%=      5-min Rain = 0
KMC4 040418Z 13004KT 29/12 A3002 RMK A01 T02860118  RH  035%=      5-min Rain = 0
KMC4 040419Z 14004KT 29/12 A3002 RMK A01 T02860118  RH  035%=      5-min Rain = 0
KMC4 040420Z 13004KT 29/12 A3002 RMK A01 T02850118  RH  036%=      5-min Rain = 0
KMC4 040421Z 14004KT 29/12 A3002 RMK A01 T02850119  RH  036%=      5-min Rain = 0
KMC4 040422Z 14004KT 29/12 A3002 RMK A01 T02850119  RH  036%=      5-min Rain = 0
KMC4 040423Z 14003KT 29/12 A3002 RMK A01 T02850119  RH  036%=      5-min Rain = 0
KMC4 040424Z 13004KT 28/12 A3002 RMK A01 T02840118  RH  036%=      5-min Rain = 0
KMC4 040425Z 13004KT 28/12 A3002 RMK A01 T02830118  RH  036%=      5-min Rain = 0
KMC4 040426Z 13004KT 28/12 A3002 RMK A01 T02830118  RH  036%=      5-min Rain = 0
KMC4 040427Z 13004KT 28/12 A3002 RMK A01 T02820118  RH  036%=      5-min Rain = 0
KMC4 040428Z 12003KT 28/12 A3002 RMK A01 T02820118  RH  036%=      5-min Rain = 0
KMC4 040429Z 12003KT 28/12 A3003 RMK A01 T02820118  RH  036%=      5-min Rain = 0
KMC4 040430Z 12003KT 28/12 A3003 RMK A01 T02820118  RH  036%=      5-min Rain = 0
KMC4 040431Z 12003KT 28/12 A3003 RMK A01 T02820118  RH  036%=      5-min Rain = 0
KMC4 040432Z 12003KT 28/12 A3003 RMK A01 T02820119  RH  036%=      5-min Rain = 0
KMC4 040433Z 12004KT 28/12 A3003 RMK A01 T02830119  RH  036%=      5-min Rain = 0
KMC4 040434Z 12003KT 28/12 A3003 RMK A01 T02830120  RH  036%=      5-min Rain = 0
KMC4 040435Z 12003KT 28/12 A3003 RMK A01 T02840120  RH  036%=      5-min Rain = 0
KMC4 040436Z 12003KT 28/12 A3003 RMK A01 T02840120  RH  036%=      5-min Rain = 0
KMC4 040437Z 12004KT 29/12 A3003 RMK A01 T02850120  RH  036%=      5-min Rain = 0
KMC4 040438Z 12004KT 29/12 A3003 RMK A01 T02850120  RH  036%=      5-min Rain = 0
KMC4 040439Z 12004KT 28/12 A3003 RMK A01 T02840120  RH  036%=      5-min Rain = 0
KMC4 040440Z 12004KT 29/12 A3003 RMK A01 T02850121  RH  036%=      5-min Rain = 0
KMC4 040441Z 12004KT 29/12 A3003 RMK A01 T02850121  RH  036%=      5-min Rain = 0
KMC4 040442Z 12004KT 28/12 A3003 RMK A01 T02840121  RH  036%=      5-min Rain = 0
KMC4 040443Z 12005KT 29/12 A3003 RMK A01 T02850122  RH  036%=      5-min Rain = 0
KMC4 040444Z 12005KT 29/12 A3003 RMK A01 T02850122  RH  036%=      5-min Rain = 0
KMC4 040445Z 12005KT 29/12 A3003 RMK A01 T02860122  RH  036%=      5-min Rain = 0
KMC4 040446Z 12004KT 29/12 A3003 RMK A01 T02860123  RH  036%=      5-min Rain = 0
KMC4 040447Z 11005KT 29/12 A3003 RMK A01 T02860123  RH  036%=      5-min Rain = 0
KMC4 040448Z 11004KT 29/12 A3003 RMK A01 T02860123  RH  036%=      5-min Rain = 0
KMC4 040449Z 11004KT 29/12 A3003 RMK A01 T02870124  RH  036%=      5-min Rain = 0
KMC4 040450Z 11004KT 29/12 A3003 RMK A01 T02870123  RH  036%=      5-min Rain = 0
KMC4 040451Z 11004KT 29/12 A3003 RMK A01 T02880124  RH  036%=      5-min Rain = 0
KMC4 040452Z 11004KT 29/12 A3003 RMK A01 T02870124  RH  036%=      5-min Rain = 0
KMC4 040453Z 11004KT 29/12 A3003 RMK A01 T02880124  RH  036%=      5-min Rain = 0
KMC4 040454Z 11004KT 29/12 A3003 RMK A01 T02880124  RH  036%=      5-min Rain = 0
KMC4 040455Z 11005KT 29/13 A3003 RMK A01 T02880125  RH  037%=      5-min Rain = 0
KMC4 040456Z 12005KT 29/13 A3003 RMK A01 T02880125  RH  037%=      5-min Rain = 0
KMC4 040457Z 11005KT 29/13 A3003 RMK A01 T02870125  RH  037%=      5-min Rain = 0
KMC4 040458Z 11004KT 29/13 A3003 RMK A01 T02870126  RH  037%=      5-min Rain = 0
KMC4 040459Z 12004KT 29/13 A3003 RMK A01 T02870125  RH  037%=      5-min Rain = 0

Page generated in 0.1114 seconds.